<?xml version="1.0" encoding="UTF-8" standalone="no" ?>
<gpx xmlns="http://www.topografix.com/GPX/1/1" xmlns:xsi="http://www.w3.org/2001/XMLSchema-instance" xsi:schemaLocation="http://www.topografix.com/GPX/1/1 http://www.topografix.com/GPX/1/1/gpx.xsd" version="1.1" creator="VisuGPX - https://www.visugpx.com">
  <metadata>
    <name>carrefour de luynes</name>
    <desc><![CDATA[Marche nordique au départ du carrefour de Luynes, entre Clairefontaine et Rochefort en Yvelines.
Parcours très varié avec des cotes, des grandes allées et surtout un terrain sablonneux, interéssant par périodes humides]]></desc>
  </metadata>
  <trk>
    <name><![CDATA[Carrefour de luynes]]></name>
    <trkseg>
      <trkpt lat="48.5917" lon="1.96603">
        <ele>25.13</ele>
        <time>2016-03-15T10:44:40Z</time>
      </trkpt>
      <trkpt lat="48.59169" lon="1.96597">
        <ele>24.17</ele>
        <time>2016-03-15T10:44:12Z</time>
      </trkpt>
      <trkpt lat="48.5917" lon="1.96599">
        <ele>25.13</ele>
        <time>2016-03-15T10:43:55Z</time>
      </trkpt>
      <trkpt lat="48.59172" lon="1.96598">
        <ele>25.13</ele>
        <time>2016-03-15T10:42:41Z</time>
      </trkpt>
      <trkpt lat="48.59176" lon="1.96594">
        <ele>25.13</ele>
        <time>2016-03-15T10:42:25Z</time>
      </trkpt>
      <trkpt lat="48.59184" lon="1.96574">
        <ele>25.13</ele>
        <time>2016-03-15T10:42:12Z</time>
      </trkpt>
      <trkpt lat="48.59186" lon="1.96567">
        <ele>26.09</ele>
        <time>2016-03-15T10:42:08Z</time>
      </trkpt>
      <trkpt lat="48.59192" lon="1.96563">
        <ele>26.09</ele>
        <time>2016-03-15T10:42:02Z</time>
      </trkpt>
      <trkpt lat="48.59193" lon="1.96558">
        <ele>26.09</ele>
        <time>2016-03-15T10:41:58Z</time>
      </trkpt>
      <trkpt lat="48.59198" lon="1.96558">
        <ele>26.09</ele>
        <time>2016-03-15T10:41:55Z</time>
      </trkpt>
      <trkpt lat="48.59211" lon="1.96539">
        <ele>27.05</ele>
        <time>2016-03-15T10:41:43Z</time>
      </trkpt>
      <trkpt lat="48.59228" lon="1.96527">
        <ele>28.02</ele>
        <time>2016-03-15T10:41:31Z</time>
      </trkpt>
      <trkpt lat="48.5925" lon="1.96518">
        <ele>28.98</ele>
        <time>2016-03-15T10:41:21Z</time>
      </trkpt>
      <trkpt lat="48.59253" lon="1.96512">
        <ele>29.94</ele>
        <time>2016-03-15T10:41:17Z</time>
      </trkpt>
      <trkpt lat="48.5926" lon="1.96498">
        <ele>30.9</ele>
        <time>2016-03-15T10:41:05Z</time>
      </trkpt>
      <trkpt lat="48.59261" lon="1.96497">
        <ele>31.86</ele>
        <time>2016-03-15T10:41:04Z</time>
      </trkpt>
      <trkpt lat="48.59281" lon="1.96489">
        <ele>32.82</ele>
        <time>2016-03-15T10:40:52Z</time>
      </trkpt>
      <trkpt lat="48.59291" lon="1.9648">
        <ele>35.23</ele>
        <time>2016-03-15T10:40:44Z</time>
      </trkpt>
      <trkpt lat="48.59297" lon="1.96478">
        <ele>36.19</ele>
        <time>2016-03-15T10:40:39Z</time>
      </trkpt>
      <trkpt lat="48.59301" lon="1.96477">
        <ele>36.19</ele>
        <time>2016-03-15T10:40:35Z</time>
      </trkpt>
      <trkpt lat="48.59303" lon="1.96476">
        <ele>37.15</ele>
        <time>2016-03-15T10:40:32Z</time>
      </trkpt>
      <trkpt lat="48.5932" lon="1.96481">
        <ele>39.07</ele>
        <time>2016-03-15T10:40:20Z</time>
      </trkpt>
      <trkpt lat="48.59334" lon="1.96492">
        <ele>40.03</ele>
        <time>2016-03-15T10:40:06Z</time>
      </trkpt>
      <trkpt lat="48.59351" lon="1.96507">
        <ele>40.99</ele>
        <time>2016-03-15T10:39:53Z</time>
      </trkpt>
      <trkpt lat="48.59357" lon="1.96512">
        <ele>40.99</ele>
        <time>2016-03-15T10:39:47Z</time>
      </trkpt>
      <trkpt lat="48.5936" lon="1.96516">
        <ele>40.99</ele>
        <time>2016-03-15T10:39:43Z</time>
      </trkpt>
      <trkpt lat="48.59362" lon="1.96519">
        <ele>41.95</ele>
        <time>2016-03-15T10:39:41Z</time>
      </trkpt>
      <trkpt lat="48.59369" lon="1.96528">
        <ele>41.95</ele>
        <time>2016-03-15T10:39:34Z</time>
      </trkpt>
      <trkpt lat="48.59385" lon="1.96545">
        <ele>44.84</ele>
        <time>2016-03-15T10:39:19Z</time>
      </trkpt>
      <trkpt lat="48.59401" lon="1.96564">
        <ele>46.76</ele>
        <time>2016-03-15T10:39:03Z</time>
      </trkpt>
      <trkpt lat="48.59406" lon="1.96569">
        <ele>48.2</ele>
        <time>2016-03-15T10:38:58Z</time>
      </trkpt>
      <trkpt lat="48.59407" lon="1.9657">
        <ele>48.2</ele>
        <time>2016-03-15T10:38:56Z</time>
      </trkpt>
      <trkpt lat="48.59409" lon="1.96572">
        <ele>49.16</ele>
        <time>2016-03-15T10:38:54Z</time>
      </trkpt>
      <trkpt lat="48.59421" lon="1.96585">
        <ele>51.09</ele>
        <time>2016-03-15T10:38:39Z</time>
      </trkpt>
      <trkpt lat="48.59424" lon="1.96588">
        <ele>51.09</ele>
        <time>2016-03-15T10:38:36Z</time>
      </trkpt>
      <trkpt lat="48.59428" lon="1.96592">
        <ele>51.09</ele>
        <time>2016-03-15T10:38:32Z</time>
      </trkpt>
      <trkpt lat="48.59431" lon="1.96597">
        <ele>52.05</ele>
        <time>2016-03-15T10:38:28Z</time>
      </trkpt>
      <trkpt lat="48.59432" lon="1.96599">
        <ele>52.05</ele>
        <time>2016-03-15T10:38:27Z</time>
      </trkpt>
      <trkpt lat="48.59432" lon="1.966">
        <ele>52.05</ele>
        <time>2016-03-15T10:38:26Z</time>
      </trkpt>
      <trkpt lat="48.59433" lon="1.96601">
        <ele>52.05</ele>
        <time>2016-03-15T10:38:25Z</time>
      </trkpt>
      <trkpt lat="48.59434" lon="1.96601">
        <ele>52.05</ele>
        <time>2016-03-15T10:38:24Z</time>
      </trkpt>
      <trkpt lat="48.59442" lon="1.96596">
        <ele>52.05</ele>
        <time>2016-03-15T10:38:11Z</time>
      </trkpt>
      <trkpt lat="48.59443" lon="1.96596">
        <ele>52.05</ele>
        <time>2016-03-15T10:38:10Z</time>
      </trkpt>
      <trkpt lat="48.5945" lon="1.96583">
        <ele>52.05</ele>
        <time>2016-03-15T10:38:01Z</time>
      </trkpt>
      <trkpt lat="48.5945" lon="1.96581">
        <ele>52.05</ele>
        <time>2016-03-15T10:38:00Z</time>
      </trkpt>
      <trkpt lat="48.59451" lon="1.96579">
        <ele>52.05</ele>
        <time>2016-03-15T10:37:59Z</time>
      </trkpt>
      <trkpt lat="48.59452" lon="1.96577">
        <ele>52.05</ele>
        <time>2016-03-15T10:37:58Z</time>
      </trkpt>
      <trkpt lat="48.59453" lon="1.96575">
        <ele>52.05</ele>
        <time>2016-03-15T10:37:57Z</time>
      </trkpt>
      <trkpt lat="48.59454" lon="1.96574">
        <ele>52.05</ele>
        <time>2016-03-15T10:37:56Z</time>
      </trkpt>
      <trkpt lat="48.59455" lon="1.96572">
        <ele>52.05</ele>
        <time>2016-03-15T10:37:55Z</time>
      </trkpt>
      <trkpt lat="48.59467" lon="1.96549">
        <ele>53.01</ele>
        <time>2016-03-15T10:37:42Z</time>
      </trkpt>
      <trkpt lat="48.59477" lon="1.96522">
        <ele>54.93</ele>
        <time>2016-03-15T10:37:28Z</time>
      </trkpt>
      <trkpt lat="48.59489" lon="1.96499">
        <ele>56.86</ele>
        <time>2016-03-15T10:37:14Z</time>
      </trkpt>
      <trkpt lat="48.59502" lon="1.96467">
        <ele>57.82</ele>
        <time>2016-03-15T10:36:57Z</time>
      </trkpt>
      <trkpt lat="48.59514" lon="1.96445">
        <ele>60.22</ele>
        <time>2016-03-15T10:36:42Z</time>
      </trkpt>
      <trkpt lat="48.59524" lon="1.96421">
        <ele>61.18</ele>
        <time>2016-03-15T10:36:29Z</time>
      </trkpt>
      <trkpt lat="48.59535" lon="1.96396">
        <ele>63.1</ele>
        <time>2016-03-15T10:36:14Z</time>
      </trkpt>
      <trkpt lat="48.59547" lon="1.9637">
        <ele>64.07</ele>
        <time>2016-03-15T10:35:58Z</time>
      </trkpt>
      <trkpt lat="48.59559" lon="1.9635">
        <ele>64.07</ele>
        <time>2016-03-15T10:35:46Z</time>
      </trkpt>
      <trkpt lat="48.59572" lon="1.96325">
        <ele>64.07</ele>
        <time>2016-03-15T10:35:31Z</time>
      </trkpt>
      <trkpt lat="48.59584" lon="1.96302">
        <ele>64.07</ele>
        <time>2016-03-15T10:35:17Z</time>
      </trkpt>
      <trkpt lat="48.59585" lon="1.963">
        <ele>64.07</ele>
        <time>2016-03-15T10:35:16Z</time>
      </trkpt>
      <trkpt lat="48.59586" lon="1.96299">
        <ele>64.07</ele>
        <time>2016-03-15T10:35:15Z</time>
      </trkpt>
      <trkpt lat="48.59587" lon="1.96297">
        <ele>64.07</ele>
        <time>2016-03-15T10:35:14Z</time>
      </trkpt>
      <trkpt lat="48.59588" lon="1.96295">
        <ele>64.07</ele>
        <time>2016-03-15T10:35:13Z</time>
      </trkpt>
      <trkpt lat="48.59588" lon="1.96294">
        <ele>65.03</ele>
        <time>2016-03-15T10:35:12Z</time>
      </trkpt>
      <trkpt lat="48.59589" lon="1.96293">
        <ele>65.03</ele>
        <time>2016-03-15T10:35:11Z</time>
      </trkpt>
      <trkpt lat="48.59591" lon="1.96291">
        <ele>65.03</ele>
        <time>2016-03-15T10:35:10Z</time>
      </trkpt>
      <trkpt lat="48.59592" lon="1.9629">
        <ele>65.99</ele>
        <time>2016-03-15T10:35:09Z</time>
      </trkpt>
      <trkpt lat="48.59594" lon="1.96289">
        <ele>65.99</ele>
        <time>2016-03-15T10:35:08Z</time>
      </trkpt>
      <trkpt lat="48.59595" lon="1.96289">
        <ele>65.99</ele>
        <time>2016-03-15T10:35:07Z</time>
      </trkpt>
      <trkpt lat="48.59597" lon="1.96288">
        <ele>65.99</ele>
        <time>2016-03-15T10:35:06Z</time>
      </trkpt>
      <trkpt lat="48.59599" lon="1.96288">
        <ele>66.95</ele>
        <time>2016-03-15T10:35:05Z</time>
      </trkpt>
      <trkpt lat="48.59603" lon="1.96291">
        <ele>67.91</ele>
        <time>2016-03-15T10:35:01Z</time>
      </trkpt>
      <trkpt lat="48.59621" lon="1.96306">
        <ele>68.87</ele>
        <time>2016-03-15T10:34:46Z</time>
      </trkpt>
      <trkpt lat="48.59633" lon="1.96323">
        <ele>68.87</ele>
        <time>2016-03-15T10:34:34Z</time>
      </trkpt>
      <trkpt lat="48.59634" lon="1.96324">
        <ele>68.87</ele>
        <time>2016-03-15T10:34:33Z</time>
      </trkpt>
      <trkpt lat="48.59636" lon="1.96325">
        <ele>68.87</ele>
        <time>2016-03-15T10:34:32Z</time>
      </trkpt>
      <trkpt lat="48.59637" lon="1.96327">
        <ele>68.87</ele>
        <time>2016-03-15T10:34:31Z</time>
      </trkpt>
      <trkpt lat="48.59638" lon="1.96328">
        <ele>68.87</ele>
        <time>2016-03-15T10:34:30Z</time>
      </trkpt>
      <trkpt lat="48.5964" lon="1.9633">
        <ele>69.83</ele>
        <time>2016-03-15T10:34:29Z</time>
      </trkpt>
      <trkpt lat="48.59641" lon="1.96331">
        <ele>69.83</ele>
        <time>2016-03-15T10:34:28Z</time>
      </trkpt>
      <trkpt lat="48.59653" lon="1.96344">
        <ele>69.83</ele>
        <time>2016-03-15T10:34:17Z</time>
      </trkpt>
      <trkpt lat="48.59655" lon="1.96345">
        <ele>69.83</ele>
        <time>2016-03-15T10:34:16Z</time>
      </trkpt>
      <trkpt lat="48.5966" lon="1.96351">
        <ele>69.83</ele>
        <time>2016-03-15T10:34:12Z</time>
      </trkpt>
      <trkpt lat="48.59672" lon="1.9636">
        <ele>69.83</ele>
        <time>2016-03-15T10:34:03Z</time>
      </trkpt>
      <trkpt lat="48.59689" lon="1.96379">
        <ele>69.83</ele>
        <time>2016-03-15T10:33:49Z</time>
      </trkpt>
      <trkpt lat="48.59689" lon="1.96381">
        <ele>69.83</ele>
        <time>2016-03-15T10:33:48Z</time>
      </trkpt>
      <trkpt lat="48.59692" lon="1.96383">
        <ele>69.83</ele>
        <time>2016-03-15T10:33:45Z</time>
      </trkpt>
      <trkpt lat="48.59693" lon="1.96384">
        <ele>69.83</ele>
        <time>2016-03-15T10:33:44Z</time>
      </trkpt>
      <trkpt lat="48.59694" lon="1.96385">
        <ele>69.83</ele>
        <time>2016-03-15T10:33:43Z</time>
      </trkpt>
      <trkpt lat="48.59695" lon="1.96386">
        <ele>69.83</ele>
        <time>2016-03-15T10:33:42Z</time>
      </trkpt>
      <trkpt lat="48.59697" lon="1.96387">
        <ele>69.83</ele>
        <time>2016-03-15T10:33:41Z</time>
      </trkpt>
      <trkpt lat="48.597" lon="1.96393">
        <ele>69.83</ele>
        <time>2016-03-15T10:33:37Z</time>
      </trkpt>
      <trkpt lat="48.59712" lon="1.96403">
        <ele>69.83</ele>
        <time>2016-03-15T10:33:27Z</time>
      </trkpt>
      <trkpt lat="48.59713" lon="1.96404">
        <ele>69.83</ele>
        <time>2016-03-15T10:33:26Z</time>
      </trkpt>
      <trkpt lat="48.59716" lon="1.96409">
        <ele>69.83</ele>
        <time>2016-03-15T10:33:20Z</time>
      </trkpt>
      <trkpt lat="48.59717" lon="1.9641">
        <ele>69.83</ele>
        <time>2016-03-15T10:33:19Z</time>
      </trkpt>
      <trkpt lat="48.59718" lon="1.96411">
        <ele>69.83</ele>
        <time>2016-03-15T10:33:18Z</time>
      </trkpt>
      <trkpt lat="48.59719" lon="1.96412">
        <ele>69.83</ele>
        <time>2016-03-15T10:33:17Z</time>
      </trkpt>
      <trkpt lat="48.59721" lon="1.96416">
        <ele>69.83</ele>
        <time>2016-03-15T10:33:13Z</time>
      </trkpt>
      <trkpt lat="48.59722" lon="1.96417">
        <ele>69.83</ele>
        <time>2016-03-15T10:33:12Z</time>
      </trkpt>
      <trkpt lat="48.59723" lon="1.96418">
        <ele>69.83</ele>
        <time>2016-03-15T10:33:11Z</time>
      </trkpt>
      <trkpt lat="48.59725" lon="1.96419">
        <ele>69.83</ele>
        <time>2016-03-15T10:33:10Z</time>
      </trkpt>
      <trkpt lat="48.59726" lon="1.9642">
        <ele>69.83</ele>
        <time>2016-03-15T10:33:09Z</time>
      </trkpt>
      <trkpt lat="48.59728" lon="1.96421">
        <ele>69.83</ele>
        <time>2016-03-15T10:33:08Z</time>
      </trkpt>
      <trkpt lat="48.5973" lon="1.96423">
        <ele>69.83</ele>
        <time>2016-03-15T10:33:07Z</time>
      </trkpt>
      <trkpt lat="48.59731" lon="1.96424">
        <ele>69.83</ele>
        <time>2016-03-15T10:33:06Z</time>
      </trkpt>
      <trkpt lat="48.59733" lon="1.96426">
        <ele>69.83</ele>
        <time>2016-03-15T10:33:04Z</time>
      </trkpt>
      <trkpt lat="48.59743" lon="1.96436">
        <ele>69.83</ele>
        <time>2016-03-15T10:32:53Z</time>
      </trkpt>
      <trkpt lat="48.59748" lon="1.96444">
        <ele>68.87</ele>
        <time>2016-03-15T10:32:41Z</time>
      </trkpt>
      <trkpt lat="48.5975" lon="1.96449">
        <ele>68.87</ele>
        <time>2016-03-15T10:32:14Z</time>
      </trkpt>
      <trkpt lat="48.59749" lon="1.96442">
        <ele>68.87</ele>
        <time>2016-03-15T10:31:55Z</time>
      </trkpt>
      <trkpt lat="48.59763" lon="1.96449">
        <ele>68.87</ele>
        <time>2016-03-15T10:31:16Z</time>
      </trkpt>
      <trkpt lat="48.59764" lon="1.9645">
        <ele>68.87</ele>
        <time>2016-03-15T10:31:15Z</time>
      </trkpt>
      <trkpt lat="48.59777" lon="1.96464">
        <ele>68.87</ele>
        <time>2016-03-15T10:31:03Z</time>
      </trkpt>
      <trkpt lat="48.59786" lon="1.96475">
        <ele>68.87</ele>
        <time>2016-03-15T10:30:54Z</time>
      </trkpt>
      <trkpt lat="48.59787" lon="1.96477">
        <ele>67.91</ele>
        <time>2016-03-15T10:30:53Z</time>
      </trkpt>
      <trkpt lat="48.59788" lon="1.96478">
        <ele>67.91</ele>
        <time>2016-03-15T10:30:52Z</time>
      </trkpt>
      <trkpt lat="48.59798" lon="1.96487">
        <ele>67.91</ele>
        <time>2016-03-15T10:30:44Z</time>
      </trkpt>
      <trkpt lat="48.59799" lon="1.96488">
        <ele>67.91</ele>
        <time>2016-03-15T10:30:43Z</time>
      </trkpt>
      <trkpt lat="48.59807" lon="1.96497">
        <ele>67.91</ele>
        <time>2016-03-15T10:30:35Z</time>
      </trkpt>
      <trkpt lat="48.59809" lon="1.96498">
        <ele>67.91</ele>
        <time>2016-03-15T10:30:34Z</time>
      </trkpt>
      <trkpt lat="48.5981" lon="1.96499">
        <ele>67.91</ele>
        <time>2016-03-15T10:30:33Z</time>
      </trkpt>
      <trkpt lat="48.59826" lon="1.96516">
        <ele>67.91</ele>
        <time>2016-03-15T10:30:20Z</time>
      </trkpt>
      <trkpt lat="48.59841" lon="1.96528">
        <ele>66.95</ele>
        <time>2016-03-15T10:30:08Z</time>
      </trkpt>
      <trkpt lat="48.59856" lon="1.96546">
        <ele>65.99</ele>
        <time>2016-03-15T10:29:55Z</time>
      </trkpt>
      <trkpt lat="48.59869" lon="1.9656">
        <ele>65.03</ele>
        <time>2016-03-15T10:29:41Z</time>
      </trkpt>
      <trkpt lat="48.59881" lon="1.96579">
        <ele>64.07</ele>
        <time>2016-03-15T10:29:27Z</time>
      </trkpt>
      <trkpt lat="48.59887" lon="1.96603">
        <ele>65.03</ele>
        <time>2016-03-15T10:29:11Z</time>
      </trkpt>
      <trkpt lat="48.59885" lon="1.96608">
        <ele>65.03</ele>
        <time>2016-03-15T10:29:06Z</time>
      </trkpt>
      <trkpt lat="48.59882" lon="1.96614">
        <ele>65.03</ele>
        <time>2016-03-15T10:28:51Z</time>
      </trkpt>
      <trkpt lat="48.5988" lon="1.96604">
        <ele>64.07</ele>
        <time>2016-03-15T10:28:33Z</time>
      </trkpt>
      <trkpt lat="48.59886" lon="1.96592">
        <ele>63.1</ele>
        <time>2016-03-15T10:28:21Z</time>
      </trkpt>
      <trkpt lat="48.59891" lon="1.96577">
        <ele>62.14</ele>
        <time>2016-03-15T10:28:12Z</time>
      </trkpt>
      <trkpt lat="48.59892" lon="1.96574">
        <ele>62.14</ele>
        <time>2016-03-15T10:28:10Z</time>
      </trkpt>
      <trkpt lat="48.599" lon="1.96556">
        <ele>58.78</ele>
        <time>2016-03-15T10:27:57Z</time>
      </trkpt>
      <trkpt lat="48.59903" lon="1.96548">
        <ele>57.82</ele>
        <time>2016-03-15T10:27:53Z</time>
      </trkpt>
      <trkpt lat="48.59907" lon="1.96537">
        <ele>56.86</ele>
        <time>2016-03-15T10:27:47Z</time>
      </trkpt>
      <trkpt lat="48.59911" lon="1.96532">
        <ele>55.89</ele>
        <time>2016-03-15T10:27:43Z</time>
      </trkpt>
      <trkpt lat="48.59916" lon="1.96524">
        <ele>54.93</ele>
        <time>2016-03-15T10:27:36Z</time>
      </trkpt>
      <trkpt lat="48.59918" lon="1.96517">
        <ele>54.93</ele>
        <time>2016-03-15T10:27:32Z</time>
      </trkpt>
      <trkpt lat="48.5992" lon="1.96513">
        <ele>54.93</ele>
        <time>2016-03-15T10:27:30Z</time>
      </trkpt>
      <trkpt lat="48.5993" lon="1.96496">
        <ele>53.97</ele>
        <time>2016-03-15T10:27:19Z</time>
      </trkpt>
      <trkpt lat="48.59936" lon="1.96486">
        <ele>53.97</ele>
        <time>2016-03-15T10:27:13Z</time>
      </trkpt>
      <trkpt lat="48.59945" lon="1.96464">
        <ele>53.01</ele>
        <time>2016-03-15T10:27:00Z</time>
      </trkpt>
      <trkpt lat="48.59954" lon="1.96446">
        <ele>53.01</ele>
        <time>2016-03-15T10:26:50Z</time>
      </trkpt>
      <trkpt lat="48.59954" lon="1.96444">
        <ele>53.01</ele>
        <time>2016-03-15T10:26:49Z</time>
      </trkpt>
      <trkpt lat="48.59968" lon="1.96411">
        <ele>53.97</ele>
        <time>2016-03-15T10:26:33Z</time>
      </trkpt>
      <trkpt lat="48.59975" lon="1.96395">
        <ele>54.93</ele>
        <time>2016-03-15T10:26:24Z</time>
      </trkpt>
      <trkpt lat="48.59977" lon="1.96391">
        <ele>55.89</ele>
        <time>2016-03-15T10:26:22Z</time>
      </trkpt>
      <trkpt lat="48.59983" lon="1.96383">
        <ele>56.86</ele>
        <time>2016-03-15T10:26:14Z</time>
      </trkpt>
      <trkpt lat="48.59985" lon="1.96373">
        <ele>57.82</ele>
        <time>2016-03-15T10:26:08Z</time>
      </trkpt>
      <trkpt lat="48.59992" lon="1.96357">
        <ele>60.22</ele>
        <time>2016-03-15T10:25:55Z</time>
      </trkpt>
      <trkpt lat="48.59994" lon="1.96355">
        <ele>60.22</ele>
        <time>2016-03-15T10:25:53Z</time>
      </trkpt>
      <trkpt lat="48.59998" lon="1.96348">
        <ele>61.18</ele>
        <time>2016-03-15T10:25:48Z</time>
      </trkpt>
      <trkpt lat="48.60001" lon="1.96342">
        <ele>62.14</ele>
        <time>2016-03-15T10:25:43Z</time>
      </trkpt>
      <trkpt lat="48.60005" lon="1.96336">
        <ele>62.14</ele>
        <time>2016-03-15T10:25:38Z</time>
      </trkpt>
      <trkpt lat="48.60018" lon="1.9631">
        <ele>62.14</ele>
        <time>2016-03-15T10:25:21Z</time>
      </trkpt>
      <trkpt lat="48.60027" lon="1.96301">
        <ele>61.18</ele>
        <time>2016-03-15T10:25:11Z</time>
      </trkpt>
      <trkpt lat="48.60034" lon="1.96281">
        <ele>61.18</ele>
        <time>2016-03-15T10:24:59Z</time>
      </trkpt>
      <trkpt lat="48.60035" lon="1.96279">
        <ele>61.18</ele>
        <time>2016-03-15T10:24:58Z</time>
      </trkpt>
      <trkpt lat="48.60045" lon="1.96258">
        <ele>62.14</ele>
        <time>2016-03-15T10:24:44Z</time>
      </trkpt>
      <trkpt lat="48.60047" lon="1.96253">
        <ele>62.14</ele>
        <time>2016-03-15T10:24:40Z</time>
      </trkpt>
      <trkpt lat="48.60052" lon="1.96247">
        <ele>63.1</ele>
        <time>2016-03-15T10:24:35Z</time>
      </trkpt>
      <trkpt lat="48.60054" lon="1.96242">
        <ele>63.1</ele>
        <time>2016-03-15T10:24:32Z</time>
      </trkpt>
      <trkpt lat="48.60056" lon="1.96239">
        <ele>63.1</ele>
        <time>2016-03-15T10:24:29Z</time>
      </trkpt>
      <trkpt lat="48.60058" lon="1.96237">
        <ele>62.14</ele>
        <time>2016-03-15T10:24:27Z</time>
      </trkpt>
      <trkpt lat="48.6006" lon="1.9623">
        <ele>62.14</ele>
        <time>2016-03-15T10:24:23Z</time>
      </trkpt>
      <trkpt lat="48.60069" lon="1.96216">
        <ele>61.18</ele>
        <time>2016-03-15T10:24:11Z</time>
      </trkpt>
      <trkpt lat="48.60075" lon="1.96206">
        <ele>58.78</ele>
        <time>2016-03-15T10:24:02Z</time>
      </trkpt>
      <trkpt lat="48.60081" lon="1.96194">
        <ele>55.89</ele>
        <time>2016-03-15T10:23:50Z</time>
      </trkpt>
      <trkpt lat="48.60085" lon="1.96187">
        <ele>54.93</ele>
        <time>2016-03-15T10:23:41Z</time>
      </trkpt>
      <trkpt lat="48.60089" lon="1.96179">
        <ele>52.05</ele>
        <time>2016-03-15T10:23:30Z</time>
      </trkpt>
      <trkpt lat="48.60094" lon="1.96168">
        <ele>49.16</ele>
        <time>2016-03-15T10:23:18Z</time>
      </trkpt>
      <trkpt lat="48.60096" lon="1.96163">
        <ele>48.2</ele>
        <time>2016-03-15T10:23:13Z</time>
      </trkpt>
      <trkpt lat="48.60101" lon="1.96153">
        <ele>44.84</ele>
        <time>2016-03-15T10:23:00Z</time>
      </trkpt>
      <trkpt lat="48.60104" lon="1.96149">
        <ele>43.88</ele>
        <time>2016-03-15T10:22:56Z</time>
      </trkpt>
      <trkpt lat="48.60109" lon="1.96138">
        <ele>42.92</ele>
        <time>2016-03-15T10:22:48Z</time>
      </trkpt>
      <trkpt lat="48.60117" lon="1.96122">
        <ele>40.99</ele>
        <time>2016-03-15T10:22:32Z</time>
      </trkpt>
      <trkpt lat="48.60123" lon="1.96111">
        <ele>37.15</ele>
        <time>2016-03-15T10:22:19Z</time>
      </trkpt>
      <trkpt lat="48.60127" lon="1.96104">
        <ele>36.19</ele>
        <time>2016-03-15T10:22:12Z</time>
      </trkpt>
      <trkpt lat="48.60134" lon="1.96092">
        <ele>33.78</ele>
        <time>2016-03-15T10:22:02Z</time>
      </trkpt>
      <trkpt lat="48.60137" lon="1.96086">
        <ele>29.94</ele>
        <time>2016-03-15T10:21:50Z</time>
      </trkpt>
      <trkpt lat="48.60144" lon="1.96078">
        <ele>28.98</ele>
        <time>2016-03-15T10:21:36Z</time>
      </trkpt>
      <trkpt lat="48.60147" lon="1.96073">
        <ele>28.98</ele>
        <time>2016-03-15T10:21:17Z</time>
      </trkpt>
      <trkpt lat="48.60146" lon="1.96069">
        <ele>28.98</ele>
        <time>2016-03-15T10:21:13Z</time>
      </trkpt>
      <trkpt lat="48.60146" lon="1.96058">
        <ele>28.98</ele>
        <time>2016-03-15T10:21:04Z</time>
      </trkpt>
      <trkpt lat="48.60146" lon="1.96056">
        <ele>28.98</ele>
        <time>2016-03-15T10:21:03Z</time>
      </trkpt>
      <trkpt lat="48.60156" lon="1.96064">
        <ele>28.98</ele>
        <time>2016-03-15T10:20:44Z</time>
      </trkpt>
      <trkpt lat="48.60156" lon="1.96066">
        <ele>28.98</ele>
        <time>2016-03-15T10:20:43Z</time>
      </trkpt>
      <trkpt lat="48.6016" lon="1.96093">
        <ele>29.94</ele>
        <time>2016-03-15T10:20:26Z</time>
      </trkpt>
      <trkpt lat="48.60163" lon="1.96107">
        <ele>30.9</ele>
        <time>2016-03-15T10:20:20Z</time>
      </trkpt>
      <trkpt lat="48.6017" lon="1.96147">
        <ele>31.86</ele>
        <time>2016-03-15T10:20:01Z</time>
      </trkpt>
      <trkpt lat="48.60163" lon="1.96166">
        <ele>32.82</ele>
        <time>2016-03-15T10:19:54Z</time>
      </trkpt>
      <trkpt lat="48.60164" lon="1.96178">
        <ele>32.82</ele>
        <time>2016-03-15T10:19:48Z</time>
      </trkpt>
      <trkpt lat="48.60168" lon="1.96195">
        <ele>35.23</ele>
        <time>2016-03-15T10:19:40Z</time>
      </trkpt>
      <trkpt lat="48.60167" lon="1.96199">
        <ele>35.23</ele>
        <time>2016-03-15T10:19:38Z</time>
      </trkpt>
      <trkpt lat="48.6016" lon="1.96231">
        <ele>37.15</ele>
        <time>2016-03-15T10:19:23Z</time>
      </trkpt>
      <trkpt lat="48.6016" lon="1.96243">
        <ele>38.11</ele>
        <time>2016-03-15T10:19:17Z</time>
      </trkpt>
      <trkpt lat="48.60164" lon="1.96255">
        <ele>39.07</ele>
        <time>2016-03-15T10:19:11Z</time>
      </trkpt>
      <trkpt lat="48.60181" lon="1.96282">
        <ele>40.99</ele>
        <time>2016-03-15T10:18:55Z</time>
      </trkpt>
      <trkpt lat="48.60181" lon="1.96285">
        <ele>41.95</ele>
        <time>2016-03-15T10:18:53Z</time>
      </trkpt>
      <trkpt lat="48.60189" lon="1.96303">
        <ele>42.92</ele>
        <time>2016-03-15T10:18:41Z</time>
      </trkpt>
      <trkpt lat="48.6019" lon="1.96312">
        <ele>42.92</ele>
        <time>2016-03-15T10:18:36Z</time>
      </trkpt>
      <trkpt lat="48.60192" lon="1.9632">
        <ele>43.88</ele>
        <time>2016-03-15T10:18:32Z</time>
      </trkpt>
      <trkpt lat="48.60197" lon="1.9636">
        <ele>44.84</ele>
        <time>2016-03-15T10:18:16Z</time>
      </trkpt>
      <trkpt lat="48.60201" lon="1.9638">
        <ele>44.84</ele>
        <time>2016-03-15T10:18:06Z</time>
      </trkpt>
      <trkpt lat="48.60202" lon="1.96387">
        <ele>44.84</ele>
        <time>2016-03-15T10:18:02Z</time>
      </trkpt>
      <trkpt lat="48.60203" lon="1.96391">
        <ele>44.84</ele>
        <time>2016-03-15T10:18:00Z</time>
      </trkpt>
      <trkpt lat="48.60203" lon="1.96408">
        <ele>43.88</ele>
        <time>2016-03-15T10:17:52Z</time>
      </trkpt>
      <trkpt lat="48.60205" lon="1.96416">
        <ele>43.88</ele>
        <time>2016-03-15T10:17:49Z</time>
      </trkpt>
      <trkpt lat="48.60207" lon="1.96455">
        <ele>41.95</ele>
        <time>2016-03-15T10:17:32Z</time>
      </trkpt>
      <trkpt lat="48.60207" lon="1.96461">
        <ele>41.95</ele>
        <time>2016-03-15T10:17:29Z</time>
      </trkpt>
      <trkpt lat="48.60216" lon="1.96485">
        <ele>40.99</ele>
        <time>2016-03-15T10:17:16Z</time>
      </trkpt>
      <trkpt lat="48.60215" lon="1.9649">
        <ele>40.99</ele>
        <time>2016-03-15T10:17:14Z</time>
      </trkpt>
      <trkpt lat="48.60215" lon="1.96498">
        <ele>40.99</ele>
        <time>2016-03-15T10:17:10Z</time>
      </trkpt>
      <trkpt lat="48.60216" lon="1.96513">
        <ele>40.99</ele>
        <time>2016-03-15T10:17:03Z</time>
      </trkpt>
      <trkpt lat="48.60216" lon="1.96516">
        <ele>40.99</ele>
        <time>2016-03-15T10:17:01Z</time>
      </trkpt>
      <trkpt lat="48.60217" lon="1.96528">
        <ele>40.03</ele>
        <time>2016-03-15T10:16:54Z</time>
      </trkpt>
      <trkpt lat="48.60215" lon="1.96535">
        <ele>40.03</ele>
        <time>2016-03-15T10:16:50Z</time>
      </trkpt>
      <trkpt lat="48.60217" lon="1.96547">
        <ele>40.03</ele>
        <time>2016-03-15T10:16:44Z</time>
      </trkpt>
      <trkpt lat="48.60217" lon="1.9657">
        <ele>39.07</ele>
        <time>2016-03-15T10:16:33Z</time>
      </trkpt>
      <trkpt lat="48.60216" lon="1.96581">
        <ele>38.11</ele>
        <time>2016-03-15T10:16:28Z</time>
      </trkpt>
      <trkpt lat="48.60217" lon="1.96593">
        <ele>38.11</ele>
        <time>2016-03-15T10:16:23Z</time>
      </trkpt>
      <trkpt lat="48.60214" lon="1.96611">
        <ele>37.15</ele>
        <time>2016-03-15T10:16:16Z</time>
      </trkpt>
      <trkpt lat="48.60214" lon="1.96633">
        <ele>36.19</ele>
        <time>2016-03-15T10:16:03Z</time>
      </trkpt>
      <trkpt lat="48.60214" lon="1.96658">
        <ele>36.19</ele>
        <time>2016-03-15T10:15:50Z</time>
      </trkpt>
      <trkpt lat="48.60207" lon="1.96686">
        <ele>35.23</ele>
        <time>2016-03-15T10:15:36Z</time>
      </trkpt>
      <trkpt lat="48.60209" lon="1.96699">
        <ele>35.23</ele>
        <time>2016-03-15T10:15:31Z</time>
      </trkpt>
      <trkpt lat="48.60215" lon="1.96725">
        <ele>33.78</ele>
        <time>2016-03-15T10:15:17Z</time>
      </trkpt>
      <trkpt lat="48.60215" lon="1.96735">
        <ele>33.78</ele>
        <time>2016-03-15T10:15:13Z</time>
      </trkpt>
      <trkpt lat="48.60217" lon="1.96747">
        <ele>33.78</ele>
        <time>2016-03-15T10:15:07Z</time>
      </trkpt>
      <trkpt lat="48.6022" lon="1.96771">
        <ele>33.78</ele>
        <time>2016-03-15T10:14:52Z</time>
      </trkpt>
      <trkpt lat="48.6022" lon="1.96778">
        <ele>33.78</ele>
        <time>2016-03-15T10:14:48Z</time>
      </trkpt>
      <trkpt lat="48.60223" lon="1.96799">
        <ele>32.82</ele>
        <time>2016-03-15T10:14:38Z</time>
      </trkpt>
      <trkpt lat="48.60228" lon="1.96808">
        <ele>32.82</ele>
        <time>2016-03-15T10:14:32Z</time>
      </trkpt>
      <trkpt lat="48.60239" lon="1.96844">
        <ele>30.9</ele>
        <time>2016-03-15T10:14:09Z</time>
      </trkpt>
      <trkpt lat="48.60239" lon="1.96861">
        <ele>30.9</ele>
        <time>2016-03-15T10:14:01Z</time>
      </trkpt>
      <trkpt lat="48.60244" lon="1.96868">
        <ele>30.9</ele>
        <time>2016-03-15T10:13:55Z</time>
      </trkpt>
      <trkpt lat="48.60252" lon="1.9689">
        <ele>29.94</ele>
        <time>2016-03-15T10:13:42Z</time>
      </trkpt>
      <trkpt lat="48.60254" lon="1.96893">
        <ele>29.94</ele>
        <time>2016-03-15T10:13:40Z</time>
      </trkpt>
      <trkpt lat="48.60256" lon="1.96899">
        <ele>29.94</ele>
        <time>2016-03-15T10:13:36Z</time>
      </trkpt>
      <trkpt lat="48.60261" lon="1.96903">
        <ele>29.94</ele>
        <time>2016-03-15T10:13:25Z</time>
      </trkpt>
      <trkpt lat="48.60267" lon="1.96911">
        <ele>29.94</ele>
        <time>2016-03-15T10:13:19Z</time>
      </trkpt>
      <trkpt lat="48.6027" lon="1.96919">
        <ele>28.98</ele>
        <time>2016-03-15T10:13:15Z</time>
      </trkpt>
      <trkpt lat="48.60277" lon="1.96935">
        <ele>28.98</ele>
        <time>2016-03-15T10:13:07Z</time>
      </trkpt>
      <trkpt lat="48.60284" lon="1.96943">
        <ele>28.98</ele>
        <time>2016-03-15T10:13:03Z</time>
      </trkpt>
      <trkpt lat="48.60285" lon="1.96956">
        <ele>28.02</ele>
        <time>2016-03-15T10:12:54Z</time>
      </trkpt>
      <trkpt lat="48.60286" lon="1.96975">
        <ele>28.02</ele>
        <time>2016-03-15T10:12:45Z</time>
      </trkpt>
      <trkpt lat="48.60291" lon="1.9698">
        <ele>27.05</ele>
        <time>2016-03-15T10:12:41Z</time>
      </trkpt>
      <trkpt lat="48.60295" lon="1.96995">
        <ele>27.05</ele>
        <time>2016-03-15T10:12:27Z</time>
      </trkpt>
      <trkpt lat="48.60297" lon="1.96999">
        <ele>27.05</ele>
        <time>2016-03-15T10:12:23Z</time>
      </trkpt>
      <trkpt lat="48.60298" lon="1.97003">
        <ele>27.05</ele>
        <time>2016-03-15T10:12:15Z</time>
      </trkpt>
      <trkpt lat="48.60309" lon="1.96967">
        <ele>28.98</ele>
        <time>2016-03-15T10:11:51Z</time>
      </trkpt>
      <trkpt lat="48.60326" lon="1.96951">
        <ele>29.94</ele>
        <time>2016-03-15T10:11:37Z</time>
      </trkpt>
      <trkpt lat="48.60328" lon="1.96936">
        <ele>31.86</ele>
        <time>2016-03-15T10:11:28Z</time>
      </trkpt>
      <trkpt lat="48.60337" lon="1.96916">
        <ele>33.78</ele>
        <time>2016-03-15T10:11:15Z</time>
      </trkpt>
      <trkpt lat="48.60349" lon="1.96896">
        <ele>37.15</ele>
        <time>2016-03-15T10:11:01Z</time>
      </trkpt>
      <trkpt lat="48.6036" lon="1.96876">
        <ele>40.03</ele>
        <time>2016-03-15T10:10:46Z</time>
      </trkpt>
      <trkpt lat="48.60369" lon="1.9687">
        <ele>41.95</ele>
        <time>2016-03-15T10:10:26Z</time>
      </trkpt>
      <trkpt lat="48.60368" lon="1.96867">
        <ele>41.95</ele>
        <time>2016-03-15T10:10:22Z</time>
      </trkpt>
      <trkpt lat="48.60363" lon="1.9686">
        <ele>42.92</ele>
        <time>2016-03-15T10:10:12Z</time>
      </trkpt>
      <trkpt lat="48.60367" lon="1.96843">
        <ele>46.76</ele>
        <time>2016-03-15T10:09:57Z</time>
      </trkpt>
      <trkpt lat="48.60369" lon="1.9684">
        <ele>46.76</ele>
        <time>2016-03-15T10:09:55Z</time>
      </trkpt>
      <trkpt lat="48.60379" lon="1.96821">
        <ele>48.2</ele>
        <time>2016-03-15T10:09:42Z</time>
      </trkpt>
      <trkpt lat="48.60399" lon="1.96794">
        <ele>48.2</ele>
        <time>2016-03-15T10:09:21Z</time>
      </trkpt>
      <trkpt lat="48.60401" lon="1.96791">
        <ele>48.2</ele>
        <time>2016-03-15T10:09:19Z</time>
      </trkpt>
      <trkpt lat="48.60409" lon="1.96781">
        <ele>48.2</ele>
        <time>2016-03-15T10:09:03Z</time>
      </trkpt>
      <trkpt lat="48.60412" lon="1.96782">
        <ele>48.2</ele>
        <time>2016-03-15T10:08:51Z</time>
      </trkpt>
      <trkpt lat="48.60405" lon="1.96784">
        <ele>48.2</ele>
        <time>2016-03-15T10:08:26Z</time>
      </trkpt>
      <trkpt lat="48.60403" lon="1.96782">
        <ele>48.2</ele>
        <time>2016-03-15T10:08:07Z</time>
      </trkpt>
      <trkpt lat="48.6041" lon="1.96789">
        <ele>48.2</ele>
        <time>2016-03-15T10:07:28Z</time>
      </trkpt>
      <trkpt lat="48.60411" lon="1.96791">
        <ele>49.16</ele>
        <time>2016-03-15T10:07:23Z</time>
      </trkpt>
      <trkpt lat="48.60418" lon="1.968">
        <ele>49.16</ele>
        <time>2016-03-15T10:07:04Z</time>
      </trkpt>
      <trkpt lat="48.60432" lon="1.96804">
        <ele>48.2</ele>
        <time>2016-03-15T10:06:38Z</time>
      </trkpt>
      <trkpt lat="48.60439" lon="1.96806">
        <ele>48.2</ele>
        <time>2016-03-15T10:06:34Z</time>
      </trkpt>
      <trkpt lat="48.60442" lon="1.96812">
        <ele>48.2</ele>
        <time>2016-03-15T10:06:28Z</time>
      </trkpt>
      <trkpt lat="48.60462" lon="1.96833">
        <ele>46.76</ele>
        <time>2016-03-15T10:06:05Z</time>
      </trkpt>
      <trkpt lat="48.60474" lon="1.96851">
        <ele>43.88</ele>
        <time>2016-03-15T10:05:46Z</time>
      </trkpt>
      <trkpt lat="48.60481" lon="1.96858">
        <ele>42.92</ele>
        <time>2016-03-15T10:05:41Z</time>
      </trkpt>
      <trkpt lat="48.60484" lon="1.96864">
        <ele>41.95</ele>
        <time>2016-03-15T10:05:37Z</time>
      </trkpt>
      <trkpt lat="48.6049" lon="1.96874">
        <ele>40.99</ele>
        <time>2016-03-15T10:05:29Z</time>
      </trkpt>
      <trkpt lat="48.60517" lon="1.96893">
        <ele>38.11</ele>
        <time>2016-03-15T10:05:10Z</time>
      </trkpt>
      <trkpt lat="48.60533" lon="1.96909">
        <ele>35.23</ele>
        <time>2016-03-15T10:04:55Z</time>
      </trkpt>
      <trkpt lat="48.60534" lon="1.96912">
        <ele>33.78</ele>
        <time>2016-03-15T10:04:52Z</time>
      </trkpt>
      <trkpt lat="48.60551" lon="1.96927">
        <ele>30.9</ele>
        <time>2016-03-15T10:04:38Z</time>
      </trkpt>
      <trkpt lat="48.60565" lon="1.96944">
        <ele>28.98</ele>
        <time>2016-03-15T10:04:24Z</time>
      </trkpt>
      <trkpt lat="48.60582" lon="1.96963">
        <ele>27.05</ele>
        <time>2016-03-15T10:04:10Z</time>
      </trkpt>
      <trkpt lat="48.60592" lon="1.96969">
        <ele>26.09</ele>
        <time>2016-03-15T10:04:04Z</time>
      </trkpt>
      <trkpt lat="48.60607" lon="1.96983">
        <ele>24.17</ele>
        <time>2016-03-15T10:03:51Z</time>
      </trkpt>
      <trkpt lat="48.60609" lon="1.96985">
        <ele>23.21</ele>
        <time>2016-03-15T10:03:49Z</time>
      </trkpt>
      <trkpt lat="48.60626" lon="1.97">
        <ele>21.77</ele>
        <time>2016-03-15T10:03:39Z</time>
      </trkpt>
      <trkpt lat="48.60628" lon="1.97005">
        <ele>21.77</ele>
        <time>2016-03-15T10:03:36Z</time>
      </trkpt>
      <trkpt lat="48.6064" lon="1.97021">
        <ele>21.77</ele>
        <time>2016-03-15T10:03:23Z</time>
      </trkpt>
      <trkpt lat="48.6065" lon="1.97038">
        <ele>20.81</ele>
        <time>2016-03-15T10:03:13Z</time>
      </trkpt>
      <trkpt lat="48.60664" lon="1.97051">
        <ele>19.84</ele>
        <time>2016-03-15T10:03:03Z</time>
      </trkpt>
      <trkpt lat="48.60667" lon="1.97055">
        <ele>18.88</ele>
        <time>2016-03-15T10:03:00Z</time>
      </trkpt>
      <trkpt lat="48.60689" lon="1.97078">
        <ele>16.96</ele>
        <time>2016-03-15T10:02:43Z</time>
      </trkpt>
      <trkpt lat="48.60695" lon="1.97088">
        <ele>16.96</ele>
        <time>2016-03-15T10:02:37Z</time>
      </trkpt>
      <trkpt lat="48.60707" lon="1.97101">
        <ele>16</ele>
        <time>2016-03-15T10:02:26Z</time>
      </trkpt>
      <trkpt lat="48.60711" lon="1.97107">
        <ele>15.04</ele>
        <time>2016-03-15T10:02:23Z</time>
      </trkpt>
      <trkpt lat="48.60712" lon="1.97121">
        <ele>15.04</ele>
        <time>2016-03-15T10:02:13Z</time>
      </trkpt>
      <trkpt lat="48.60717" lon="1.97155">
        <ele>14.08</ele>
        <time>2016-03-15T10:01:56Z</time>
      </trkpt>
      <trkpt lat="48.60718" lon="1.97159">
        <ele>14.08</ele>
        <time>2016-03-15T10:01:54Z</time>
      </trkpt>
      <trkpt lat="48.60717" lon="1.97185">
        <ele>14.08</ele>
        <time>2016-03-15T10:01:43Z</time>
      </trkpt>
      <trkpt lat="48.60714" lon="1.9721">
        <ele>13.12</ele>
        <time>2016-03-15T10:01:31Z</time>
      </trkpt>
      <trkpt lat="48.60706" lon="1.97239">
        <ele>13.12</ele>
        <time>2016-03-15T10:01:18Z</time>
      </trkpt>
      <trkpt lat="48.60705" lon="1.97277">
        <ele>13.12</ele>
        <time>2016-03-15T10:01:05Z</time>
      </trkpt>
      <trkpt lat="48.60713" lon="1.97319">
        <ele>12.15</ele>
        <time>2016-03-15T10:00:48Z</time>
      </trkpt>
      <trkpt lat="48.60717" lon="1.97334">
        <ele>12.15</ele>
        <time>2016-03-15T10:00:41Z</time>
      </trkpt>
      <trkpt lat="48.6072" lon="1.97343">
        <ele>12.15</ele>
        <time>2016-03-15T10:00:37Z</time>
      </trkpt>
      <trkpt lat="48.60723" lon="1.97353">
        <ele>12.15</ele>
        <time>2016-03-15T10:00:33Z</time>
      </trkpt>
      <trkpt lat="48.60726" lon="1.97359">
        <ele>12.15</ele>
        <time>2016-03-15T10:00:28Z</time>
      </trkpt>
      <trkpt lat="48.60731" lon="1.97372">
        <ele>12.15</ele>
        <time>2016-03-15T10:00:20Z</time>
      </trkpt>
      <trkpt lat="48.60731" lon="1.97376">
        <ele>12.15</ele>
        <time>2016-03-15T10:00:18Z</time>
      </trkpt>
      <trkpt lat="48.60733" lon="1.97391">
        <ele>12.15</ele>
        <time>2016-03-15T10:00:11Z</time>
      </trkpt>
      <trkpt lat="48.60741" lon="1.97405">
        <ele>11.19</ele>
        <time>2016-03-15T10:00:04Z</time>
      </trkpt>
      <trkpt lat="48.60748" lon="1.9741">
        <ele>11.19</ele>
        <time>2016-03-15T10:00:01Z</time>
      </trkpt>
      <trkpt lat="48.6076" lon="1.97424">
        <ele>11.19</ele>
        <time>2016-03-15T09:59:46Z</time>
      </trkpt>
      <trkpt lat="48.60769" lon="1.97435">
        <ele>10.23</ele>
        <time>2016-03-15T09:59:30Z</time>
      </trkpt>
      <trkpt lat="48.60774" lon="1.97436">
        <ele>10.23</ele>
        <time>2016-03-15T09:59:26Z</time>
      </trkpt>
      <trkpt lat="48.60785" lon="1.97444">
        <ele>10.23</ele>
        <time>2016-03-15T09:59:02Z</time>
      </trkpt>
      <trkpt lat="48.60783" lon="1.97458">
        <ele>10.23</ele>
        <time>2016-03-15T09:58:42Z</time>
      </trkpt>
      <trkpt lat="48.60781" lon="1.97461">
        <ele>10.23</ele>
        <time>2016-03-15T09:58:39Z</time>
      </trkpt>
      <trkpt lat="48.60789" lon="1.97463">
        <ele>10.23</ele>
        <time>2016-03-15T09:58:03Z</time>
      </trkpt>
      <trkpt lat="48.60791" lon="1.97464">
        <ele>10.23</ele>
        <time>2016-03-15T09:58:01Z</time>
      </trkpt>
      <trkpt lat="48.60798" lon="1.97482">
        <ele>8.79</ele>
        <time>2016-03-15T09:57:44Z</time>
      </trkpt>
      <trkpt lat="48.60803" lon="1.97507">
        <ele>8.79</ele>
        <time>2016-03-15T09:57:28Z</time>
      </trkpt>
      <trkpt lat="48.60811" lon="1.97529">
        <ele>8.79</ele>
        <time>2016-03-15T09:57:15Z</time>
      </trkpt>
      <trkpt lat="48.60826" lon="1.9755">
        <ele>7.83</ele>
        <time>2016-03-15T09:57:05Z</time>
      </trkpt>
      <trkpt lat="48.6084" lon="1.97578">
        <ele>7.83</ele>
        <time>2016-03-15T09:56:51Z</time>
      </trkpt>
      <trkpt lat="48.60839" lon="1.97596">
        <ele>7.83</ele>
        <time>2016-03-15T09:56:42Z</time>
      </trkpt>
      <trkpt lat="48.60841" lon="1.97611">
        <ele>7.83</ele>
        <time>2016-03-15T09:56:37Z</time>
      </trkpt>
      <trkpt lat="48.60849" lon="1.97641">
        <ele>7.83</ele>
        <time>2016-03-15T09:56:23Z</time>
      </trkpt>
      <trkpt lat="48.60849" lon="1.97659">
        <ele>7.83</ele>
        <time>2016-03-15T09:56:16Z</time>
      </trkpt>
      <trkpt lat="48.60849" lon="1.97669">
        <ele>7.83</ele>
        <time>2016-03-15T09:56:12Z</time>
      </trkpt>
      <trkpt lat="48.60845" lon="1.97685">
        <ele>7.83</ele>
        <time>2016-03-15T09:56:06Z</time>
      </trkpt>
      <trkpt lat="48.60843" lon="1.977">
        <ele>7.83</ele>
        <time>2016-03-15T09:56:00Z</time>
      </trkpt>
      <trkpt lat="48.60841" lon="1.97738">
        <ele>7.83</ele>
        <time>2016-03-15T09:55:44Z</time>
      </trkpt>
      <trkpt lat="48.60842" lon="1.97759">
        <ele>6.87</ele>
        <time>2016-03-15T09:55:35Z</time>
      </trkpt>
      <trkpt lat="48.60841" lon="1.9777">
        <ele>6.87</ele>
        <time>2016-03-15T09:55:29Z</time>
      </trkpt>
      <trkpt lat="48.60833" lon="1.978">
        <ele>6.87</ele>
        <time>2016-03-15T09:55:17Z</time>
      </trkpt>
      <trkpt lat="48.60832" lon="1.97845">
        <ele>6.87</ele>
        <time>2016-03-15T09:55:00Z</time>
      </trkpt>
      <trkpt lat="48.60832" lon="1.97858">
        <ele>6.87</ele>
        <time>2016-03-15T09:54:54Z</time>
      </trkpt>
      <trkpt lat="48.6083" lon="1.97873">
        <ele>6.87</ele>
        <time>2016-03-15T09:54:48Z</time>
      </trkpt>
      <trkpt lat="48.60831" lon="1.97876">
        <ele>6.87</ele>
        <time>2016-03-15T09:54:46Z</time>
      </trkpt>
      <trkpt lat="48.60826" lon="1.97905">
        <ele>6.87</ele>
        <time>2016-03-15T09:54:35Z</time>
      </trkpt>
      <trkpt lat="48.6082" lon="1.97924">
        <ele>6.87</ele>
        <time>2016-03-15T09:54:27Z</time>
      </trkpt>
      <trkpt lat="48.60823" lon="1.97933">
        <ele>6.87</ele>
        <time>2016-03-15T09:54:21Z</time>
      </trkpt>
      <trkpt lat="48.60817" lon="1.97957">
        <ele>7.83</ele>
        <time>2016-03-15T09:54:06Z</time>
      </trkpt>
      <trkpt lat="48.60813" lon="1.97961">
        <ele>7.83</ele>
        <time>2016-03-15T09:53:56Z</time>
      </trkpt>
      <trkpt lat="48.60812" lon="1.9796">
        <ele>7.83</ele>
        <time>2016-03-15T09:53:37Z</time>
      </trkpt>
      <trkpt lat="48.60814" lon="1.97962">
        <ele>7.83</ele>
        <time>2016-03-15T09:53:09Z</time>
      </trkpt>
      <trkpt lat="48.60816" lon="1.97962">
        <ele>6.87</ele>
        <time>2016-03-15T09:52:59Z</time>
      </trkpt>
      <trkpt lat="48.60816" lon="1.97961">
        <ele>6.87</ele>
        <time>2016-03-15T09:52:34Z</time>
      </trkpt>
      <trkpt lat="48.60807" lon="1.97962">
        <ele>6.87</ele>
        <time>2016-03-15T09:52:09Z</time>
      </trkpt>
      <trkpt lat="48.60792" lon="1.97958">
        <ele>8.79</ele>
        <time>2016-03-15T09:51:54Z</time>
      </trkpt>
      <trkpt lat="48.60789" lon="1.97957">
        <ele>8.79</ele>
        <time>2016-03-15T09:51:52Z</time>
      </trkpt>
      <trkpt lat="48.60785" lon="1.97955">
        <ele>8.79</ele>
        <time>2016-03-15T09:51:49Z</time>
      </trkpt>
      <trkpt lat="48.60782" lon="1.97952">
        <ele>8.79</ele>
        <time>2016-03-15T09:51:45Z</time>
      </trkpt>
      <trkpt lat="48.60763" lon="1.97936">
        <ele>10.23</ele>
        <time>2016-03-15T09:51:31Z</time>
      </trkpt>
      <trkpt lat="48.60743" lon="1.97917">
        <ele>10.23</ele>
        <time>2016-03-15T09:51:18Z</time>
      </trkpt>
      <trkpt lat="48.60735" lon="1.97908">
        <ele>10.23</ele>
        <time>2016-03-15T09:51:07Z</time>
      </trkpt>
      <trkpt lat="48.60734" lon="1.97904">
        <ele>11.19</ele>
        <time>2016-03-15T09:51:04Z</time>
      </trkpt>
      <trkpt lat="48.60732" lon="1.97901">
        <ele>11.19</ele>
        <time>2016-03-15T09:51:02Z</time>
      </trkpt>
      <trkpt lat="48.60724" lon="1.97893">
        <ele>11.19</ele>
        <time>2016-03-15T09:50:55Z</time>
      </trkpt>
      <trkpt lat="48.60711" lon="1.97879">
        <ele>11.19</ele>
        <time>2016-03-15T09:50:44Z</time>
      </trkpt>
      <trkpt lat="48.60704" lon="1.97872">
        <ele>11.19</ele>
        <time>2016-03-15T09:50:39Z</time>
      </trkpt>
      <trkpt lat="48.607" lon="1.97868">
        <ele>11.19</ele>
        <time>2016-03-15T09:50:36Z</time>
      </trkpt>
      <trkpt lat="48.60682" lon="1.97851">
        <ele>11.19</ele>
        <time>2016-03-15T09:50:21Z</time>
      </trkpt>
      <trkpt lat="48.60677" lon="1.97848">
        <ele>11.19</ele>
        <time>2016-03-15T09:50:17Z</time>
      </trkpt>
      <trkpt lat="48.6067" lon="1.97842">
        <ele>11.19</ele>
        <time>2016-03-15T09:50:10Z</time>
      </trkpt>
      <trkpt lat="48.60655" lon="1.97826">
        <ele>11.19</ele>
        <time>2016-03-15T09:49:57Z</time>
      </trkpt>
      <trkpt lat="48.60636" lon="1.97806">
        <ele>12.15</ele>
        <time>2016-03-15T09:49:43Z</time>
      </trkpt>
      <trkpt lat="48.60628" lon="1.97797">
        <ele>12.15</ele>
        <time>2016-03-15T09:49:36Z</time>
      </trkpt>
      <trkpt lat="48.60619" lon="1.97789">
        <ele>12.15</ele>
        <time>2016-03-15T09:49:27Z</time>
      </trkpt>
      <trkpt lat="48.60602" lon="1.97773">
        <ele>13.12</ele>
        <time>2016-03-15T09:49:12Z</time>
      </trkpt>
      <trkpt lat="48.6058" lon="1.97749">
        <ele>14.08</ele>
        <time>2016-03-15T09:48:52Z</time>
      </trkpt>
      <trkpt lat="48.60563" lon="1.97732">
        <ele>14.08</ele>
        <time>2016-03-15T09:48:35Z</time>
      </trkpt>
      <trkpt lat="48.60556" lon="1.97727">
        <ele>15.04</ele>
        <time>2016-03-15T09:48:27Z</time>
      </trkpt>
      <trkpt lat="48.60552" lon="1.97725">
        <ele>15.04</ele>
        <time>2016-03-15T09:48:17Z</time>
      </trkpt>
      <trkpt lat="48.60552" lon="1.97725">
        <ele>15.04</ele>
        <time>2016-03-15T09:47:58Z</time>
      </trkpt>
      <trkpt lat="48.60551" lon="1.97721">
        <ele>15.04</ele>
        <time>2016-03-15T09:47:37Z</time>
      </trkpt>
      <trkpt lat="48.60552" lon="1.97723">
        <ele>14.08</ele>
        <time>2016-03-15T09:47:13Z</time>
      </trkpt>
      <trkpt lat="48.60553" lon="1.9772">
        <ele>14.08</ele>
        <time>2016-03-15T09:46:42Z</time>
      </trkpt>
      <trkpt lat="48.60541" lon="1.97706">
        <ele>15.04</ele>
        <time>2016-03-15T09:46:09Z</time>
      </trkpt>
      <trkpt lat="48.60538" lon="1.97704">
        <ele>15.04</ele>
        <time>2016-03-15T09:46:05Z</time>
      </trkpt>
      <trkpt lat="48.60528" lon="1.97691">
        <ele>16</ele>
        <time>2016-03-15T09:45:52Z</time>
      </trkpt>
      <trkpt lat="48.60514" lon="1.97678">
        <ele>16.96</ele>
        <time>2016-03-15T09:45:42Z</time>
      </trkpt>
      <trkpt lat="48.60498" lon="1.9766">
        <ele>17.92</ele>
        <time>2016-03-15T09:45:28Z</time>
      </trkpt>
      <trkpt lat="48.60489" lon="1.97653">
        <ele>17.92</ele>
        <time>2016-03-15T09:45:22Z</time>
      </trkpt>
      <trkpt lat="48.60485" lon="1.97649">
        <ele>17.92</ele>
        <time>2016-03-15T09:45:19Z</time>
      </trkpt>
      <trkpt lat="48.60477" lon="1.9764">
        <ele>18.88</ele>
        <time>2016-03-15T09:45:07Z</time>
      </trkpt>
      <trkpt lat="48.60473" lon="1.97632">
        <ele>18.88</ele>
        <time>2016-03-15T09:45:02Z</time>
      </trkpt>
      <trkpt lat="48.60452" lon="1.9761">
        <ele>19.84</ele>
        <time>2016-03-15T09:44:46Z</time>
      </trkpt>
      <trkpt lat="48.6045" lon="1.9761">
        <ele>19.84</ele>
        <time>2016-03-15T09:44:44Z</time>
      </trkpt>
      <trkpt lat="48.60434" lon="1.97593">
        <ele>19.84</ele>
        <time>2016-03-15T09:44:30Z</time>
      </trkpt>
      <trkpt lat="48.6041" lon="1.97574">
        <ele>20.81</ele>
        <time>2016-03-15T09:44:12Z</time>
      </trkpt>
      <trkpt lat="48.60407" lon="1.9757">
        <ele>20.81</ele>
        <time>2016-03-15T09:44:08Z</time>
      </trkpt>
      <trkpt lat="48.60402" lon="1.97566">
        <ele>20.81</ele>
        <time>2016-03-15T09:44:04Z</time>
      </trkpt>
      <trkpt lat="48.6038" lon="1.97539">
        <ele>21.77</ele>
        <time>2016-03-15T09:43:45Z</time>
      </trkpt>
      <trkpt lat="48.60357" lon="1.97518">
        <ele>24.17</ele>
        <time>2016-03-15T09:43:28Z</time>
      </trkpt>
      <trkpt lat="48.60339" lon="1.97496">
        <ele>25.13</ele>
        <time>2016-03-15T09:43:14Z</time>
      </trkpt>
      <trkpt lat="48.60332" lon="1.9749">
        <ele>26.09</ele>
        <time>2016-03-15T09:43:10Z</time>
      </trkpt>
      <trkpt lat="48.60327" lon="1.97484">
        <ele>26.09</ele>
        <time>2016-03-15T09:43:05Z</time>
      </trkpt>
      <trkpt lat="48.60306" lon="1.97462">
        <ele>28.02</ele>
        <time>2016-03-15T09:42:46Z</time>
      </trkpt>
      <trkpt lat="48.60299" lon="1.97454">
        <ele>28.98</ele>
        <time>2016-03-15T09:42:41Z</time>
      </trkpt>
      <trkpt lat="48.60284" lon="1.9744">
        <ele>31.86</ele>
        <time>2016-03-15T09:42:28Z</time>
      </trkpt>
      <trkpt lat="48.6027" lon="1.97424">
        <ele>36.19</ele>
        <time>2016-03-15T09:42:13Z</time>
      </trkpt>
      <trkpt lat="48.60261" lon="1.97414">
        <ele>38.11</ele>
        <time>2016-03-15T09:42:05Z</time>
      </trkpt>
      <trkpt lat="48.60254" lon="1.97409">
        <ele>40.03</ele>
        <time>2016-03-15T09:41:59Z</time>
      </trkpt>
      <trkpt lat="48.60239" lon="1.97395">
        <ele>42.92</ele>
        <time>2016-03-15T09:41:45Z</time>
      </trkpt>
      <trkpt lat="48.60227" lon="1.97382">
        <ele>45.8</ele>
        <time>2016-03-15T09:41:33Z</time>
      </trkpt>
      <trkpt lat="48.60211" lon="1.97366">
        <ele>46.76</ele>
        <time>2016-03-15T09:41:20Z</time>
      </trkpt>
      <trkpt lat="48.602" lon="1.97356">
        <ele>48.2</ele>
        <time>2016-03-15T09:41:09Z</time>
      </trkpt>
      <trkpt lat="48.60196" lon="1.97354">
        <ele>48.2</ele>
        <time>2016-03-15T09:41:06Z</time>
      </trkpt>
      <trkpt lat="48.60192" lon="1.97351">
        <ele>48.2</ele>
        <time>2016-03-15T09:41:03Z</time>
      </trkpt>
      <trkpt lat="48.60188" lon="1.97346">
        <ele>49.16</ele>
        <time>2016-03-15T09:40:58Z</time>
      </trkpt>
      <trkpt lat="48.60179" lon="1.97339">
        <ele>49.16</ele>
        <time>2016-03-15T09:40:51Z</time>
      </trkpt>
      <trkpt lat="48.60175" lon="1.97335">
        <ele>49.16</ele>
        <time>2016-03-15T09:40:47Z</time>
      </trkpt>
      <trkpt lat="48.60168" lon="1.97329">
        <ele>49.16</ele>
        <time>2016-03-15T09:40:39Z</time>
      </trkpt>
      <trkpt lat="48.60151" lon="1.9731">
        <ele>50.13</ele>
        <time>2016-03-15T09:40:23Z</time>
      </trkpt>
      <trkpt lat="48.60139" lon="1.973">
        <ele>50.13</ele>
        <time>2016-03-15T09:40:12Z</time>
      </trkpt>
      <trkpt lat="48.60127" lon="1.97291">
        <ele>50.13</ele>
        <time>2016-03-15T09:40:01Z</time>
      </trkpt>
      <trkpt lat="48.6011" lon="1.97275">
        <ele>50.13</ele>
        <time>2016-03-15T09:39:46Z</time>
      </trkpt>
      <trkpt lat="48.60094" lon="1.97259">
        <ele>49.16</ele>
        <time>2016-03-15T09:39:30Z</time>
      </trkpt>
      <trkpt lat="48.60087" lon="1.97255">
        <ele>49.16</ele>
        <time>2016-03-15T09:39:24Z</time>
      </trkpt>
      <trkpt lat="48.60082" lon="1.97252">
        <ele>49.16</ele>
        <time>2016-03-15T09:39:20Z</time>
      </trkpt>
      <trkpt lat="48.60065" lon="1.97232">
        <ele>48.2</ele>
        <time>2016-03-15T09:39:03Z</time>
      </trkpt>
      <trkpt lat="48.60046" lon="1.97213">
        <ele>44.84</ele>
        <time>2016-03-15T09:38:44Z</time>
      </trkpt>
      <trkpt lat="48.60041" lon="1.97207">
        <ele>43.88</ele>
        <time>2016-03-15T09:38:38Z</time>
      </trkpt>
      <trkpt lat="48.60023" lon="1.97196">
        <ele>43.88</ele>
        <time>2016-03-15T09:38:20Z</time>
      </trkpt>
      <trkpt lat="48.60018" lon="1.9719">
        <ele>43.88</ele>
        <time>2016-03-15T09:37:49Z</time>
      </trkpt>
      <trkpt lat="48.6001" lon="1.97174">
        <ele>43.88</ele>
        <time>2016-03-15T09:37:35Z</time>
      </trkpt>
      <trkpt lat="48.60002" lon="1.97166">
        <ele>43.88</ele>
        <time>2016-03-15T09:37:28Z</time>
      </trkpt>
      <trkpt lat="48.59997" lon="1.97161">
        <ele>43.88</ele>
        <time>2016-03-15T09:37:24Z</time>
      </trkpt>
      <trkpt lat="48.59979" lon="1.97147">
        <ele>43.88</ele>
        <time>2016-03-15T09:37:10Z</time>
      </trkpt>
      <trkpt lat="48.59961" lon="1.97136">
        <ele>42.92</ele>
        <time>2016-03-15T09:36:54Z</time>
      </trkpt>
      <trkpt lat="48.59952" lon="1.97141">
        <ele>41.95</ele>
        <time>2016-03-15T09:36:44Z</time>
      </trkpt>
      <trkpt lat="48.59928" lon="1.9715">
        <ele>40.03</ele>
        <time>2016-03-15T09:36:28Z</time>
      </trkpt>
      <trkpt lat="48.59897" lon="1.97165">
        <ele>39.07</ele>
        <time>2016-03-15T09:36:11Z</time>
      </trkpt>
      <trkpt lat="48.5989" lon="1.97168">
        <ele>39.07</ele>
        <time>2016-03-15T09:36:06Z</time>
      </trkpt>
      <trkpt lat="48.59871" lon="1.97175">
        <ele>38.11</ele>
        <time>2016-03-15T09:35:53Z</time>
      </trkpt>
      <trkpt lat="48.59868" lon="1.97177">
        <ele>38.11</ele>
        <time>2016-03-15T09:35:50Z</time>
      </trkpt>
      <trkpt lat="48.59843" lon="1.97184">
        <ele>38.11</ele>
        <time>2016-03-15T09:35:34Z</time>
      </trkpt>
      <trkpt lat="48.59823" lon="1.97197">
        <ele>37.15</ele>
        <time>2016-03-15T09:35:22Z</time>
      </trkpt>
      <trkpt lat="48.59815" lon="1.97201">
        <ele>37.15</ele>
        <time>2016-03-15T09:35:16Z</time>
      </trkpt>
      <trkpt lat="48.5981" lon="1.97203">
        <ele>37.15</ele>
        <time>2016-03-15T09:35:13Z</time>
      </trkpt>
      <trkpt lat="48.59799" lon="1.97206">
        <ele>38.11</ele>
        <time>2016-03-15T09:35:03Z</time>
      </trkpt>
      <trkpt lat="48.59797" lon="1.97207">
        <ele>38.11</ele>
        <time>2016-03-15T09:35:01Z</time>
      </trkpt>
      <trkpt lat="48.59794" lon="1.97208">
        <ele>38.11</ele>
        <time>2016-03-15T09:34:59Z</time>
      </trkpt>
      <trkpt lat="48.59777" lon="1.97213">
        <ele>38.11</ele>
        <time>2016-03-15T09:34:46Z</time>
      </trkpt>
      <trkpt lat="48.59773" lon="1.97215">
        <ele>37.15</ele>
        <time>2016-03-15T09:34:42Z</time>
      </trkpt>
      <trkpt lat="48.59757" lon="1.97227">
        <ele>37.15</ele>
        <time>2016-03-15T09:34:25Z</time>
      </trkpt>
      <trkpt lat="48.59751" lon="1.97234">
        <ele>37.15</ele>
        <time>2016-03-15T09:34:13Z</time>
      </trkpt>
      <trkpt lat="48.59757" lon="1.9725">
        <ele>36.19</ele>
        <time>2016-03-15T09:33:41Z</time>
      </trkpt>
      <trkpt lat="48.59768" lon="1.97273">
        <ele>35.23</ele>
        <time>2016-03-15T09:33:20Z</time>
      </trkpt>
      <trkpt lat="48.59777" lon="1.97289">
        <ele>33.78</ele>
        <time>2016-03-15T09:33:07Z</time>
      </trkpt>
      <trkpt lat="48.5978" lon="1.97291">
        <ele>33.78</ele>
        <time>2016-03-15T09:33:04Z</time>
      </trkpt>
      <trkpt lat="48.59783" lon="1.97297">
        <ele>33.78</ele>
        <time>2016-03-15T09:33:00Z</time>
      </trkpt>
      <trkpt lat="48.59791" lon="1.97321">
        <ele>32.82</ele>
        <time>2016-03-15T09:32:46Z</time>
      </trkpt>
      <trkpt lat="48.59804" lon="1.97345">
        <ele>31.86</ele>
        <time>2016-03-15T09:32:30Z</time>
      </trkpt>
      <trkpt lat="48.59814" lon="1.97369">
        <ele>30.9</ele>
        <time>2016-03-15T09:32:17Z</time>
      </trkpt>
      <trkpt lat="48.59827" lon="1.97394">
        <ele>30.9</ele>
        <time>2016-03-15T09:32:03Z</time>
      </trkpt>
      <trkpt lat="48.59831" lon="1.9741">
        <ele>29.94</ele>
        <time>2016-03-15T09:31:55Z</time>
      </trkpt>
      <trkpt lat="48.59833" lon="1.97413">
        <ele>29.94</ele>
        <time>2016-03-15T09:31:53Z</time>
      </trkpt>
      <trkpt lat="48.5984" lon="1.97432">
        <ele>28.98</ele>
        <time>2016-03-15T09:31:43Z</time>
      </trkpt>
      <trkpt lat="48.59847" lon="1.97446">
        <ele>28.98</ele>
        <time>2016-03-15T09:31:36Z</time>
      </trkpt>
      <trkpt lat="48.59853" lon="1.97453">
        <ele>28.02</ele>
        <time>2016-03-15T09:31:30Z</time>
      </trkpt>
      <trkpt lat="48.59862" lon="1.97475">
        <ele>27.05</ele>
        <time>2016-03-15T09:31:17Z</time>
      </trkpt>
      <trkpt lat="48.59874" lon="1.97499">
        <ele>27.05</ele>
        <time>2016-03-15T09:31:03Z</time>
      </trkpt>
      <trkpt lat="48.59889" lon="1.97527">
        <ele>26.09</ele>
        <time>2016-03-15T09:30:48Z</time>
      </trkpt>
      <trkpt lat="48.59898" lon="1.97544">
        <ele>26.09</ele>
        <time>2016-03-15T09:30:39Z</time>
      </trkpt>
      <trkpt lat="48.59897" lon="1.9755">
        <ele>25.13</ele>
        <time>2016-03-15T09:30:36Z</time>
      </trkpt>
      <trkpt lat="48.59906" lon="1.97571">
        <ele>25.13</ele>
        <time>2016-03-15T09:30:26Z</time>
      </trkpt>
      <trkpt lat="48.59907" lon="1.9758">
        <ele>25.13</ele>
        <time>2016-03-15T09:30:19Z</time>
      </trkpt>
      <trkpt lat="48.59914" lon="1.97592">
        <ele>24.17</ele>
        <time>2016-03-15T09:30:11Z</time>
      </trkpt>
      <trkpt lat="48.5992" lon="1.97607">
        <ele>24.17</ele>
        <time>2016-03-15T09:30:03Z</time>
      </trkpt>
      <trkpt lat="48.59926" lon="1.97618">
        <ele>23.21</ele>
        <time>2016-03-15T09:29:56Z</time>
      </trkpt>
      <trkpt lat="48.59935" lon="1.97631">
        <ele>23.21</ele>
        <time>2016-03-15T09:29:48Z</time>
      </trkpt>
      <trkpt lat="48.59939" lon="1.97634">
        <ele>21.77</ele>
        <time>2016-03-15T09:29:44Z</time>
      </trkpt>
      <trkpt lat="48.59947" lon="1.97652">
        <ele>20.81</ele>
        <time>2016-03-15T09:29:33Z</time>
      </trkpt>
      <trkpt lat="48.5995" lon="1.97658">
        <ele>20.81</ele>
        <time>2016-03-15T09:29:28Z</time>
      </trkpt>
      <trkpt lat="48.59962" lon="1.97687">
        <ele>20.81</ele>
        <time>2016-03-15T09:29:12Z</time>
      </trkpt>
      <trkpt lat="48.59974" lon="1.97705">
        <ele>19.84</ele>
        <time>2016-03-15T09:29:00Z</time>
      </trkpt>
      <trkpt lat="48.59985" lon="1.97728">
        <ele>19.84</ele>
        <time>2016-03-15T09:28:46Z</time>
      </trkpt>
      <trkpt lat="48.60001" lon="1.97764">
        <ele>19.84</ele>
        <time>2016-03-15T09:28:30Z</time>
      </trkpt>
      <trkpt lat="48.60001" lon="1.97767">
        <ele>19.84</ele>
        <time>2016-03-15T09:28:29Z</time>
      </trkpt>
      <trkpt lat="48.60009" lon="1.97797">
        <ele>17.92</ele>
        <time>2016-03-15T09:28:14Z</time>
      </trkpt>
      <trkpt lat="48.60027" lon="1.97809">
        <ele>17.92</ele>
        <time>2016-03-15T09:27:58Z</time>
      </trkpt>
      <trkpt lat="48.60044" lon="1.97825">
        <ele>16.96</ele>
        <time>2016-03-15T09:27:43Z</time>
      </trkpt>
      <trkpt lat="48.60061" lon="1.97852">
        <ele>16</ele>
        <time>2016-03-15T09:27:27Z</time>
      </trkpt>
      <trkpt lat="48.60087" lon="1.97867">
        <ele>16</ele>
        <time>2016-03-15T09:27:06Z</time>
      </trkpt>
      <trkpt lat="48.60102" lon="1.97883">
        <ele>16</ele>
        <time>2016-03-15T09:26:53Z</time>
      </trkpt>
      <trkpt lat="48.60124" lon="1.9791">
        <ele>15.04</ele>
        <time>2016-03-15T09:26:34Z</time>
      </trkpt>
      <trkpt lat="48.60145" lon="1.97938">
        <ele>14.08</ele>
        <time>2016-03-15T09:26:16Z</time>
      </trkpt>
      <trkpt lat="48.60166" lon="1.97963">
        <ele>14.08</ele>
        <time>2016-03-15T09:25:58Z</time>
      </trkpt>
      <trkpt lat="48.6018" lon="1.97975">
        <ele>14.08</ele>
        <time>2016-03-15T09:25:47Z</time>
      </trkpt>
      <trkpt lat="48.60192" lon="1.97986">
        <ele>14.08</ele>
        <time>2016-03-15T09:25:37Z</time>
      </trkpt>
      <trkpt lat="48.60195" lon="1.9799">
        <ele>14.08</ele>
        <time>2016-03-15T09:25:34Z</time>
      </trkpt>
      <trkpt lat="48.60218" lon="1.98018">
        <ele>13.12</ele>
        <time>2016-03-15T09:25:13Z</time>
      </trkpt>
      <trkpt lat="48.60238" lon="1.98034">
        <ele>12.15</ele>
        <time>2016-03-15T09:24:59Z</time>
      </trkpt>
      <trkpt lat="48.60255" lon="1.98053">
        <ele>11.19</ele>
        <time>2016-03-15T09:24:43Z</time>
      </trkpt>
      <trkpt lat="48.60275" lon="1.98077">
        <ele>10.23</ele>
        <time>2016-03-15T09:24:26Z</time>
      </trkpt>
      <trkpt lat="48.60283" lon="1.98082">
        <ele>10.23</ele>
        <time>2016-03-15T09:24:21Z</time>
      </trkpt>
      <trkpt lat="48.60287" lon="1.98086">
        <ele>10.23</ele>
        <time>2016-03-15T09:24:17Z</time>
      </trkpt>
      <trkpt lat="48.60307" lon="1.98107">
        <ele>10.23</ele>
        <time>2016-03-15T09:24:02Z</time>
      </trkpt>
      <trkpt lat="48.60315" lon="1.98117">
        <ele>8.79</ele>
        <time>2016-03-15T09:23:54Z</time>
      </trkpt>
      <trkpt lat="48.60316" lon="1.98122">
        <ele>8.79</ele>
        <time>2016-03-15T09:23:50Z</time>
      </trkpt>
      <trkpt lat="48.60321" lon="1.98128">
        <ele>8.79</ele>
        <time>2016-03-15T09:23:44Z</time>
      </trkpt>
      <trkpt lat="48.60329" lon="1.98134">
        <ele>8.79</ele>
        <time>2016-03-15T09:23:33Z</time>
      </trkpt>
      <trkpt lat="48.60331" lon="1.98136">
        <ele>8.79</ele>
        <time>2016-03-15T09:23:31Z</time>
      </trkpt>
      <trkpt lat="48.60344" lon="1.9815">
        <ele>7.83</ele>
        <time>2016-03-15T09:23:15Z</time>
      </trkpt>
      <trkpt lat="48.6035" lon="1.98158">
        <ele>7.83</ele>
        <time>2016-03-15T09:23:08Z</time>
      </trkpt>
      <trkpt lat="48.60368" lon="1.98184">
        <ele>6.87</ele>
        <time>2016-03-15T09:22:51Z</time>
      </trkpt>
      <trkpt lat="48.60395" lon="1.98205">
        <ele>6.87</ele>
        <time>2016-03-15T09:22:32Z</time>
      </trkpt>
      <trkpt lat="48.6041" lon="1.98226">
        <ele>5.91</ele>
        <time>2016-03-15T09:22:18Z</time>
      </trkpt>
      <trkpt lat="48.60425" lon="1.98238">
        <ele>5.91</ele>
        <time>2016-03-15T09:22:05Z</time>
      </trkpt>
      <trkpt lat="48.60444" lon="1.98257">
        <ele>5.91</ele>
        <time>2016-03-15T09:21:50Z</time>
      </trkpt>
      <trkpt lat="48.60446" lon="1.98258">
        <ele>5.91</ele>
        <time>2016-03-15T09:21:49Z</time>
      </trkpt>
      <trkpt lat="48.6045" lon="1.98261">
        <ele>5.91</ele>
        <time>2016-03-15T09:21:47Z</time>
      </trkpt>
      <trkpt lat="48.60452" lon="1.98263">
        <ele>5.91</ele>
        <time>2016-03-15T09:21:46Z</time>
      </trkpt>
      <trkpt lat="48.60454" lon="1.98264">
        <ele>5.91</ele>
        <time>2016-03-15T09:21:45Z</time>
      </trkpt>
      <trkpt lat="48.60456" lon="1.98265">
        <ele>5.91</ele>
        <time>2016-03-15T09:21:44Z</time>
      </trkpt>
      <trkpt lat="48.60458" lon="1.98265">
        <ele>5.91</ele>
        <time>2016-03-15T09:21:43Z</time>
      </trkpt>
      <trkpt lat="48.6046" lon="1.98266">
        <ele>5.91</ele>
        <time>2016-03-15T09:21:42Z</time>
      </trkpt>
      <trkpt lat="48.60462" lon="1.98267">
        <ele>5.91</ele>
        <time>2016-03-15T09:21:41Z</time>
      </trkpt>
      <trkpt lat="48.60463" lon="1.98268">
        <ele>5.91</ele>
        <time>2016-03-15T09:21:40Z</time>
      </trkpt>
      <trkpt lat="48.60475" lon="1.98288">
        <ele>5.91</ele>
        <time>2016-03-15T09:21:26Z</time>
      </trkpt>
      <trkpt lat="48.60477" lon="1.98291">
        <ele>5.91</ele>
        <time>2016-03-15T09:21:25Z</time>
      </trkpt>
      <trkpt lat="48.60478" lon="1.98292">
        <ele>5.91</ele>
        <time>2016-03-15T09:21:24Z</time>
      </trkpt>
      <trkpt lat="48.60495" lon="1.9831">
        <ele>5.91</ele>
        <time>2016-03-15T09:21:11Z</time>
      </trkpt>
      <trkpt lat="48.60511" lon="1.98326">
        <ele>5.91</ele>
        <time>2016-03-15T09:20:59Z</time>
      </trkpt>
      <trkpt lat="48.60515" lon="1.98345">
        <ele>5.91</ele>
        <time>2016-03-15T09:20:46Z</time>
      </trkpt>
      <trkpt lat="48.60516" lon="1.98345">
        <ele>5.91</ele>
        <time>2016-03-15T09:20:45Z</time>
      </trkpt>
      <trkpt lat="48.60514" lon="1.98345">
        <ele>5.91</ele>
        <time>2016-03-15T09:20:44Z</time>
      </trkpt>
      <trkpt lat="48.60514" lon="1.98348">
        <ele>5.91</ele>
        <time>2016-03-15T09:20:40Z</time>
      </trkpt>
      <trkpt lat="48.60515" lon="1.98349">
        <ele>5.91</ele>
        <time>2016-03-15T09:20:39Z</time>
      </trkpt>
      <trkpt lat="48.60515" lon="1.98351">
        <ele>4.94</ele>
        <time>2016-03-15T09:20:36Z</time>
      </trkpt>
      <trkpt lat="48.60514" lon="1.98351">
        <ele>4.94</ele>
        <time>2016-03-15T09:20:35Z</time>
      </trkpt>
      <trkpt lat="48.60514" lon="1.98352">
        <ele>4.94</ele>
        <time>2016-03-15T09:20:33Z</time>
      </trkpt>
      <trkpt lat="48.6051" lon="1.98354">
        <ele>4.94</ele>
        <time>2016-03-15T09:20:25Z</time>
      </trkpt>
      <trkpt lat="48.60506" lon="1.98354">
        <ele>4.94</ele>
        <time>2016-03-15T09:20:21Z</time>
      </trkpt>
      <trkpt lat="48.60505" lon="1.98355">
        <ele>4.94</ele>
        <time>2016-03-15T09:20:20Z</time>
      </trkpt>
      <trkpt lat="48.60499" lon="1.98356">
        <ele>4.94</ele>
        <time>2016-03-15T09:20:16Z</time>
      </trkpt>
      <trkpt lat="48.60497" lon="1.98356">
        <ele>4.94</ele>
        <time>2016-03-15T09:20:15Z</time>
      </trkpt>
      <trkpt lat="48.60494" lon="1.98356">
        <ele>4.94</ele>
        <time>2016-03-15T09:20:14Z</time>
      </trkpt>
      <trkpt lat="48.60492" lon="1.98356">
        <ele>4.94</ele>
        <time>2016-03-15T09:20:13Z</time>
      </trkpt>
      <trkpt lat="48.60491" lon="1.98356">
        <ele>4.94</ele>
        <time>2016-03-15T09:20:12Z</time>
      </trkpt>
      <trkpt lat="48.60482" lon="1.9836">
        <ele>4.94</ele>
        <time>2016-03-15T09:20:04Z</time>
      </trkpt>
      <trkpt lat="48.60466" lon="1.98361">
        <ele>3.98</ele>
        <time>2016-03-15T09:19:52Z</time>
      </trkpt>
      <trkpt lat="48.60464" lon="1.98361">
        <ele>3.98</ele>
        <time>2016-03-15T09:19:51Z</time>
      </trkpt>
      <trkpt lat="48.60454" lon="1.98364">
        <ele>3.98</ele>
        <time>2016-03-15T09:19:42Z</time>
      </trkpt>
      <trkpt lat="48.6045" lon="1.98362">
        <ele>3.98</ele>
        <time>2016-03-15T09:19:38Z</time>
      </trkpt>
      <trkpt lat="48.60442" lon="1.98364">
        <ele>3.98</ele>
        <time>2016-03-15T09:19:30Z</time>
      </trkpt>
      <trkpt lat="48.60441" lon="1.98364">
        <ele>3.98</ele>
        <time>2016-03-15T09:19:29Z</time>
      </trkpt>
      <trkpt lat="48.60435" lon="1.98366">
        <ele>3.98</ele>
        <time>2016-03-15T09:19:20Z</time>
      </trkpt>
      <trkpt lat="48.60431" lon="1.98376">
        <ele>3.98</ele>
        <time>2016-03-15T09:18:57Z</time>
      </trkpt>
      <trkpt lat="48.60422" lon="1.98378">
        <ele>3.98</ele>
        <time>2016-03-15T09:18:45Z</time>
      </trkpt>
      <trkpt lat="48.60414" lon="1.98376">
        <ele>3.98</ele>
        <time>2016-03-15T09:18:28Z</time>
      </trkpt>
      <trkpt lat="48.60399" lon="1.98388">
        <ele>4.94</ele>
        <time>2016-03-15T09:18:17Z</time>
      </trkpt>
      <trkpt lat="48.60381" lon="1.98397">
        <ele>4.94</ele>
        <time>2016-03-15T09:18:06Z</time>
      </trkpt>
      <trkpt lat="48.60367" lon="1.98412">
        <ele>6.87</ele>
        <time>2016-03-15T09:17:56Z</time>
      </trkpt>
      <trkpt lat="48.60351" lon="1.98425">
        <ele>7.83</ele>
        <time>2016-03-15T09:17:45Z</time>
      </trkpt>
      <trkpt lat="48.60334" lon="1.98443">
        <ele>8.79</ele>
        <time>2016-03-15T09:17:30Z</time>
      </trkpt>
      <trkpt lat="48.60317" lon="1.98458">
        <ele>8.79</ele>
        <time>2016-03-15T09:17:15Z</time>
      </trkpt>
      <trkpt lat="48.60295" lon="1.98494">
        <ele>8.79</ele>
        <time>2016-03-15T09:17:00Z</time>
      </trkpt>
      <trkpt lat="48.60294" lon="1.98497">
        <ele>7.83</ele>
        <time>2016-03-15T09:16:59Z</time>
      </trkpt>
      <trkpt lat="48.60293" lon="1.985">
        <ele>7.83</ele>
        <time>2016-03-15T09:16:58Z</time>
      </trkpt>
      <trkpt lat="48.6029" lon="1.98502">
        <ele>7.83</ele>
        <time>2016-03-15T09:16:57Z</time>
      </trkpt>
      <trkpt lat="48.60288" lon="1.98503">
        <ele>7.83</ele>
        <time>2016-03-15T09:16:56Z</time>
      </trkpt>
      <trkpt lat="48.60287" lon="1.98505">
        <ele>7.83</ele>
        <time>2016-03-15T09:16:55Z</time>
      </trkpt>
      <trkpt lat="48.60286" lon="1.98508">
        <ele>7.83</ele>
        <time>2016-03-15T09:16:54Z</time>
      </trkpt>
      <trkpt lat="48.60284" lon="1.9851">
        <ele>7.83</ele>
        <time>2016-03-15T09:16:53Z</time>
      </trkpt>
      <trkpt lat="48.60283" lon="1.98511">
        <ele>7.83</ele>
        <time>2016-03-15T09:16:52Z</time>
      </trkpt>
      <trkpt lat="48.60282" lon="1.98513">
        <ele>7.83</ele>
        <time>2016-03-15T09:16:51Z</time>
      </trkpt>
      <trkpt lat="48.60281" lon="1.98516">
        <ele>7.83</ele>
        <time>2016-03-15T09:16:49Z</time>
      </trkpt>
      <trkpt lat="48.60279" lon="1.98517">
        <ele>7.83</ele>
        <time>2016-03-15T09:16:48Z</time>
      </trkpt>
      <trkpt lat="48.60266" lon="1.9854">
        <ele>7.83</ele>
        <time>2016-03-15T09:16:35Z</time>
      </trkpt>
      <trkpt lat="48.60265" lon="1.98542">
        <ele>7.83</ele>
        <time>2016-03-15T09:16:34Z</time>
      </trkpt>
      <trkpt lat="48.60263" lon="1.98545">
        <ele>7.83</ele>
        <time>2016-03-15T09:16:33Z</time>
      </trkpt>
      <trkpt lat="48.60262" lon="1.98547">
        <ele>7.83</ele>
        <time>2016-03-15T09:16:32Z</time>
      </trkpt>
      <trkpt lat="48.6026" lon="1.9855">
        <ele>7.83</ele>
        <time>2016-03-15T09:16:31Z</time>
      </trkpt>
      <trkpt lat="48.60242" lon="1.98564">
        <ele>7.83</ele>
        <time>2016-03-15T09:16:20Z</time>
      </trkpt>
      <trkpt lat="48.60232" lon="1.98572">
        <ele>8.79</ele>
        <time>2016-03-15T09:16:07Z</time>
      </trkpt>
      <trkpt lat="48.60216" lon="1.98591">
        <ele>8.79</ele>
        <time>2016-03-15T09:15:57Z</time>
      </trkpt>
      <trkpt lat="48.60215" lon="1.98593">
        <ele>8.79</ele>
        <time>2016-03-15T09:15:56Z</time>
      </trkpt>
      <trkpt lat="48.60213" lon="1.98595">
        <ele>8.79</ele>
        <time>2016-03-15T09:15:55Z</time>
      </trkpt>
      <trkpt lat="48.60211" lon="1.98597">
        <ele>10.23</ele>
        <time>2016-03-15T09:15:54Z</time>
      </trkpt>
      <trkpt lat="48.60209" lon="1.986">
        <ele>10.23</ele>
        <time>2016-03-15T09:15:53Z</time>
      </trkpt>
      <trkpt lat="48.60194" lon="1.98615">
        <ele>10.23</ele>
        <time>2016-03-15T09:15:43Z</time>
      </trkpt>
      <trkpt lat="48.60193" lon="1.98616">
        <ele>10.23</ele>
        <time>2016-03-15T09:15:42Z</time>
      </trkpt>
      <trkpt lat="48.60191" lon="1.98617">
        <ele>10.23</ele>
        <time>2016-03-15T09:15:41Z</time>
      </trkpt>
      <trkpt lat="48.60189" lon="1.98617">
        <ele>10.23</ele>
        <time>2016-03-15T09:15:40Z</time>
      </trkpt>
      <trkpt lat="48.60188" lon="1.98619">
        <ele>10.23</ele>
        <time>2016-03-15T09:15:39Z</time>
      </trkpt>
      <trkpt lat="48.60186" lon="1.98621">
        <ele>10.23</ele>
        <time>2016-03-15T09:15:38Z</time>
      </trkpt>
      <trkpt lat="48.60174" lon="1.9863">
        <ele>11.19</ele>
        <time>2016-03-15T09:15:30Z</time>
      </trkpt>
      <trkpt lat="48.60173" lon="1.98631">
        <ele>11.19</ele>
        <time>2016-03-15T09:15:29Z</time>
      </trkpt>
      <trkpt lat="48.60167" lon="1.98634">
        <ele>12.15</ele>
        <time>2016-03-15T09:15:23Z</time>
      </trkpt>
      <trkpt lat="48.60148" lon="1.98651">
        <ele>13.12</ele>
        <time>2016-03-15T09:15:10Z</time>
      </trkpt>
      <trkpt lat="48.60147" lon="1.98653">
        <ele>13.12</ele>
        <time>2016-03-15T09:15:09Z</time>
      </trkpt>
      <trkpt lat="48.60146" lon="1.98655">
        <ele>13.12</ele>
        <time>2016-03-15T09:15:08Z</time>
      </trkpt>
      <trkpt lat="48.6014" lon="1.98662">
        <ele>13.12</ele>
        <time>2016-03-15T09:15:01Z</time>
      </trkpt>
      <trkpt lat="48.60139" lon="1.98663">
        <ele>13.12</ele>
        <time>2016-03-15T09:15:00Z</time>
      </trkpt>
      <trkpt lat="48.60138" lon="1.98664">
        <ele>13.12</ele>
        <time>2016-03-15T09:14:59Z</time>
      </trkpt>
      <trkpt lat="48.60137" lon="1.98666">
        <ele>13.12</ele>
        <time>2016-03-15T09:14:58Z</time>
      </trkpt>
      <trkpt lat="48.60135" lon="1.98667">
        <ele>13.12</ele>
        <time>2016-03-15T09:14:57Z</time>
      </trkpt>
      <trkpt lat="48.60134" lon="1.98669">
        <ele>13.12</ele>
        <time>2016-03-15T09:14:56Z</time>
      </trkpt>
      <trkpt lat="48.60132" lon="1.9867">
        <ele>13.12</ele>
        <time>2016-03-15T09:14:55Z</time>
      </trkpt>
      <trkpt lat="48.60126" lon="1.98686">
        <ele>12.15</ele>
        <time>2016-03-15T09:14:47Z</time>
      </trkpt>
      <trkpt lat="48.60125" lon="1.98687">
        <ele>12.15</ele>
        <time>2016-03-15T09:14:46Z</time>
      </trkpt>
      <trkpt lat="48.60116" lon="1.98693">
        <ele>12.15</ele>
        <time>2016-03-15T09:14:29Z</time>
      </trkpt>
      <trkpt lat="48.60111" lon="1.98689">
        <ele>12.15</ele>
        <time>2016-03-15T09:14:23Z</time>
      </trkpt>
      <trkpt lat="48.60099" lon="1.98695">
        <ele>12.15</ele>
        <time>2016-03-15T09:14:06Z</time>
      </trkpt>
      <trkpt lat="48.60097" lon="1.98696">
        <ele>12.15</ele>
        <time>2016-03-15T09:14:05Z</time>
      </trkpt>
      <trkpt lat="48.60096" lon="1.98697">
        <ele>12.15</ele>
        <time>2016-03-15T09:14:04Z</time>
      </trkpt>
      <trkpt lat="48.60094" lon="1.98698">
        <ele>12.15</ele>
        <time>2016-03-15T09:14:03Z</time>
      </trkpt>
      <trkpt lat="48.60093" lon="1.98698">
        <ele>12.15</ele>
        <time>2016-03-15T09:14:02Z</time>
      </trkpt>
      <trkpt lat="48.60092" lon="1.98699">
        <ele>12.15</ele>
        <time>2016-03-15T09:14:01Z</time>
      </trkpt>
      <trkpt lat="48.60091" lon="1.987">
        <ele>12.15</ele>
        <time>2016-03-15T09:14:00Z</time>
      </trkpt>
      <trkpt lat="48.60089" lon="1.98701">
        <ele>12.15</ele>
        <time>2016-03-15T09:13:59Z</time>
      </trkpt>
      <trkpt lat="48.60088" lon="1.98703">
        <ele>12.15</ele>
        <time>2016-03-15T09:13:58Z</time>
      </trkpt>
      <trkpt lat="48.60086" lon="1.98704">
        <ele>12.15</ele>
        <time>2016-03-15T09:13:57Z</time>
      </trkpt>
      <trkpt lat="48.60085" lon="1.98705">
        <ele>12.15</ele>
        <time>2016-03-15T09:13:56Z</time>
      </trkpt>
      <trkpt lat="48.60071" lon="1.98718">
        <ele>11.19</ele>
        <time>2016-03-15T09:13:46Z</time>
      </trkpt>
      <trkpt lat="48.6007" lon="1.98719">
        <ele>11.19</ele>
        <time>2016-03-15T09:13:45Z</time>
      </trkpt>
      <trkpt lat="48.60069" lon="1.98719">
        <ele>11.19</ele>
        <time>2016-03-15T09:13:44Z</time>
      </trkpt>
      <trkpt lat="48.60067" lon="1.98719">
        <ele>11.19</ele>
        <time>2016-03-15T09:13:43Z</time>
      </trkpt>
      <trkpt lat="48.60065" lon="1.98718">
        <ele>10.23</ele>
        <time>2016-03-15T09:13:42Z</time>
      </trkpt>
      <trkpt lat="48.60063" lon="1.98719">
        <ele>10.23</ele>
        <time>2016-03-15T09:13:41Z</time>
      </trkpt>
      <trkpt lat="48.60059" lon="1.98721">
        <ele>10.23</ele>
        <time>2016-03-15T09:13:38Z</time>
      </trkpt>
      <trkpt lat="48.60058" lon="1.98721">
        <ele>10.23</ele>
        <time>2016-03-15T09:13:36Z</time>
      </trkpt>
      <trkpt lat="48.60057" lon="1.98722">
        <ele>10.23</ele>
        <time>2016-03-15T09:13:35Z</time>
      </trkpt>
      <trkpt lat="48.60056" lon="1.98723">
        <ele>10.23</ele>
        <time>2016-03-15T09:13:34Z</time>
      </trkpt>
      <trkpt lat="48.60054" lon="1.98725">
        <ele>10.23</ele>
        <time>2016-03-15T09:13:33Z</time>
      </trkpt>
      <trkpt lat="48.60053" lon="1.98726">
        <ele>10.23</ele>
        <time>2016-03-15T09:13:32Z</time>
      </trkpt>
      <trkpt lat="48.60052" lon="1.98727">
        <ele>10.23</ele>
        <time>2016-03-15T09:13:31Z</time>
      </trkpt>
      <trkpt lat="48.6005" lon="1.98728">
        <ele>10.23</ele>
        <time>2016-03-15T09:13:30Z</time>
      </trkpt>
      <trkpt lat="48.60049" lon="1.98728">
        <ele>10.23</ele>
        <time>2016-03-15T09:13:29Z</time>
      </trkpt>
      <trkpt lat="48.60047" lon="1.98729">
        <ele>10.23</ele>
        <time>2016-03-15T09:13:28Z</time>
      </trkpt>
      <trkpt lat="48.60045" lon="1.9873">
        <ele>10.23</ele>
        <time>2016-03-15T09:13:27Z</time>
      </trkpt>
      <trkpt lat="48.60043" lon="1.98731">
        <ele>10.23</ele>
        <time>2016-03-15T09:13:26Z</time>
      </trkpt>
      <trkpt lat="48.60021" lon="1.98732">
        <ele>10.23</ele>
        <time>2016-03-15T09:13:12Z</time>
      </trkpt>
      <trkpt lat="48.60011" lon="1.98735">
        <ele>10.23</ele>
        <time>2016-03-15T09:13:06Z</time>
      </trkpt>
      <trkpt lat="48.6001" lon="1.98736">
        <ele>10.23</ele>
        <time>2016-03-15T09:13:05Z</time>
      </trkpt>
      <trkpt lat="48.60009" lon="1.98736">
        <ele>10.23</ele>
        <time>2016-03-15T09:13:04Z</time>
      </trkpt>
      <trkpt lat="48.60007" lon="1.98737">
        <ele>10.23</ele>
        <time>2016-03-15T09:13:03Z</time>
      </trkpt>
      <trkpt lat="48.60005" lon="1.98738">
        <ele>10.23</ele>
        <time>2016-03-15T09:13:02Z</time>
      </trkpt>
      <trkpt lat="48.60003" lon="1.98739">
        <ele>10.23</ele>
        <time>2016-03-15T09:13:01Z</time>
      </trkpt>
      <trkpt lat="48.60002" lon="1.9874">
        <ele>10.23</ele>
        <time>2016-03-15T09:13:00Z</time>
      </trkpt>
      <trkpt lat="48.6" lon="1.9874">
        <ele>10.23</ele>
        <time>2016-03-15T09:12:59Z</time>
      </trkpt>
      <trkpt lat="48.59999" lon="1.9874">
        <ele>10.23</ele>
        <time>2016-03-15T09:12:58Z</time>
      </trkpt>
      <trkpt lat="48.59997" lon="1.9874">
        <ele>10.23</ele>
        <time>2016-03-15T09:12:57Z</time>
      </trkpt>
      <trkpt lat="48.59989" lon="1.98738">
        <ele>10.23</ele>
        <time>2016-03-15T09:12:50Z</time>
      </trkpt>
      <trkpt lat="48.59988" lon="1.98738">
        <ele>10.23</ele>
        <time>2016-03-15T09:12:49Z</time>
      </trkpt>
      <trkpt lat="48.59976" lon="1.98745">
        <ele>10.23</ele>
        <time>2016-03-15T09:12:41Z</time>
      </trkpt>
      <trkpt lat="48.59974" lon="1.98746">
        <ele>10.23</ele>
        <time>2016-03-15T09:12:40Z</time>
      </trkpt>
      <trkpt lat="48.59972" lon="1.98747">
        <ele>11.19</ele>
        <time>2016-03-15T09:12:39Z</time>
      </trkpt>
      <trkpt lat="48.59971" lon="1.98748">
        <ele>11.19</ele>
        <time>2016-03-15T09:12:38Z</time>
      </trkpt>
      <trkpt lat="48.59969" lon="1.98748">
        <ele>11.19</ele>
        <time>2016-03-15T09:12:37Z</time>
      </trkpt>
      <trkpt lat="48.59968" lon="1.98749">
        <ele>11.19</ele>
        <time>2016-03-15T09:12:36Z</time>
      </trkpt>
      <trkpt lat="48.59954" lon="1.9875">
        <ele>11.19</ele>
        <time>2016-03-15T09:12:26Z</time>
      </trkpt>
      <trkpt lat="48.59953" lon="1.9875">
        <ele>11.19</ele>
        <time>2016-03-15T09:12:25Z</time>
      </trkpt>
      <trkpt lat="48.59951" lon="1.9875">
        <ele>11.19</ele>
        <time>2016-03-15T09:12:24Z</time>
      </trkpt>
      <trkpt lat="48.59949" lon="1.98751">
        <ele>11.19</ele>
        <time>2016-03-15T09:12:23Z</time>
      </trkpt>
      <trkpt lat="48.59948" lon="1.98753">
        <ele>11.19</ele>
        <time>2016-03-15T09:12:22Z</time>
      </trkpt>
      <trkpt lat="48.59946" lon="1.98754">
        <ele>11.19</ele>
        <time>2016-03-15T09:12:21Z</time>
      </trkpt>
      <trkpt lat="48.59926" lon="1.98757">
        <ele>12.15</ele>
        <time>2016-03-15T09:12:08Z</time>
      </trkpt>
      <trkpt lat="48.59925" lon="1.98757">
        <ele>12.15</ele>
        <time>2016-03-15T09:12:07Z</time>
      </trkpt>
      <trkpt lat="48.59923" lon="1.98757">
        <ele>12.15</ele>
        <time>2016-03-15T09:12:06Z</time>
      </trkpt>
      <trkpt lat="48.59921" lon="1.98758">
        <ele>12.15</ele>
        <time>2016-03-15T09:12:05Z</time>
      </trkpt>
      <trkpt lat="48.59915" lon="1.98761">
        <ele>12.15</ele>
        <time>2016-03-15T09:12:02Z</time>
      </trkpt>
      <trkpt lat="48.59913" lon="1.98762">
        <ele>12.15</ele>
        <time>2016-03-15T09:12:01Z</time>
      </trkpt>
      <trkpt lat="48.59902" lon="1.98766">
        <ele>12.15</ele>
        <time>2016-03-15T09:11:54Z</time>
      </trkpt>
      <trkpt lat="48.599" lon="1.98766">
        <ele>12.15</ele>
        <time>2016-03-15T09:11:53Z</time>
      </trkpt>
      <trkpt lat="48.59889" lon="1.98768">
        <ele>13.12</ele>
        <time>2016-03-15T09:11:46Z</time>
      </trkpt>
      <trkpt lat="48.59882" lon="1.98767">
        <ele>13.12</ele>
        <time>2016-03-15T09:11:42Z</time>
      </trkpt>
      <trkpt lat="48.59877" lon="1.98766">
        <ele>13.12</ele>
        <time>2016-03-15T09:11:39Z</time>
      </trkpt>
      <trkpt lat="48.59859" lon="1.9877">
        <ele>14.08</ele>
        <time>2016-03-15T09:11:27Z</time>
      </trkpt>
      <trkpt lat="48.59842" lon="1.98779">
        <ele>15.04</ele>
        <time>2016-03-15T09:11:16Z</time>
      </trkpt>
      <trkpt lat="48.59823" lon="1.98783">
        <ele>15.04</ele>
        <time>2016-03-15T09:11:04Z</time>
      </trkpt>
      <trkpt lat="48.59817" lon="1.98785">
        <ele>16</ele>
        <time>2016-03-15T09:11:00Z</time>
      </trkpt>
      <trkpt lat="48.59807" lon="1.98786">
        <ele>16</ele>
        <time>2016-03-15T09:10:53Z</time>
      </trkpt>
      <trkpt lat="48.59794" lon="1.98786">
        <ele>16.96</ele>
        <time>2016-03-15T09:10:45Z</time>
      </trkpt>
      <trkpt lat="48.59791" lon="1.98784">
        <ele>16.96</ele>
        <time>2016-03-15T09:10:42Z</time>
      </trkpt>
      <trkpt lat="48.59771" lon="1.98776">
        <ele>17.92</ele>
        <time>2016-03-15T09:10:27Z</time>
      </trkpt>
      <trkpt lat="48.59766" lon="1.98776">
        <ele>17.92</ele>
        <time>2016-03-15T09:10:24Z</time>
      </trkpt>
      <trkpt lat="48.59749" lon="1.98774">
        <ele>18.88</ele>
        <time>2016-03-15T09:10:11Z</time>
      </trkpt>
      <trkpt lat="48.59727" lon="1.98777">
        <ele>18.88</ele>
        <time>2016-03-15T09:10:00Z</time>
      </trkpt>
      <trkpt lat="48.59726" lon="1.98778">
        <ele>19.84</ele>
        <time>2016-03-15T09:09:59Z</time>
      </trkpt>
      <trkpt lat="48.59704" lon="1.98777">
        <ele>20.81</ele>
        <time>2016-03-15T09:09:44Z</time>
      </trkpt>
      <trkpt lat="48.5968" lon="1.9878">
        <ele>21.77</ele>
        <time>2016-03-15T09:09:28Z</time>
      </trkpt>
      <trkpt lat="48.5966" lon="1.9878">
        <ele>24.17</ele>
        <time>2016-03-15T09:09:17Z</time>
      </trkpt>
      <trkpt lat="48.59654" lon="1.98781">
        <ele>24.17</ele>
        <time>2016-03-15T09:09:13Z</time>
      </trkpt>
      <trkpt lat="48.59642" lon="1.98781">
        <ele>25.13</ele>
        <time>2016-03-15T09:09:04Z</time>
      </trkpt>
      <trkpt lat="48.59623" lon="1.98783">
        <ele>26.09</ele>
        <time>2016-03-15T09:08:51Z</time>
      </trkpt>
      <trkpt lat="48.59614" lon="1.98784">
        <ele>27.05</ele>
        <time>2016-03-15T09:08:45Z</time>
      </trkpt>
      <trkpt lat="48.59608" lon="1.98786">
        <ele>27.05</ele>
        <time>2016-03-15T09:08:41Z</time>
      </trkpt>
      <trkpt lat="48.59598" lon="1.98786">
        <ele>27.05</ele>
        <time>2016-03-15T09:08:33Z</time>
      </trkpt>
      <trkpt lat="48.59586" lon="1.98788">
        <ele>27.05</ele>
        <time>2016-03-15T09:08:24Z</time>
      </trkpt>
      <trkpt lat="48.59566" lon="1.98784">
        <ele>27.05</ele>
        <time>2016-03-15T09:08:10Z</time>
      </trkpt>
      <trkpt lat="48.59555" lon="1.98786">
        <ele>27.05</ele>
        <time>2016-03-15T09:07:57Z</time>
      </trkpt>
      <trkpt lat="48.59554" lon="1.98782">
        <ele>27.05</ele>
        <time>2016-03-15T09:07:49Z</time>
      </trkpt>
      <trkpt lat="48.59554" lon="1.98783">
        <ele>28.02</ele>
        <time>2016-03-15T09:07:08Z</time>
      </trkpt>
      <trkpt lat="48.59564" lon="1.98784">
        <ele>28.02</ele>
        <time>2016-03-15T09:06:52Z</time>
      </trkpt>
      <trkpt lat="48.59576" lon="1.98776">
        <ele>28.02</ele>
        <time>2016-03-15T09:06:41Z</time>
      </trkpt>
      <trkpt lat="48.5959" lon="1.98759">
        <ele>26.09</ele>
        <time>2016-03-15T09:06:30Z</time>
      </trkpt>
      <trkpt lat="48.59597" lon="1.98751">
        <ele>26.09</ele>
        <time>2016-03-15T09:06:25Z</time>
      </trkpt>
      <trkpt lat="48.59605" lon="1.9874">
        <ele>26.09</ele>
        <time>2016-03-15T09:06:19Z</time>
      </trkpt>
      <trkpt lat="48.59616" lon="1.98729">
        <ele>27.05</ele>
        <time>2016-03-15T09:06:09Z</time>
      </trkpt>
      <trkpt lat="48.5962" lon="1.98718">
        <ele>27.05</ele>
        <time>2016-03-15T09:06:02Z</time>
      </trkpt>
      <trkpt lat="48.59629" lon="1.98701">
        <ele>28.02</ele>
        <time>2016-03-15T09:05:52Z</time>
      </trkpt>
      <trkpt lat="48.59637" lon="1.98684">
        <ele>28.98</ele>
        <time>2016-03-15T09:05:39Z</time>
      </trkpt>
      <trkpt lat="48.59641" lon="1.98681">
        <ele>28.98</ele>
        <time>2016-03-15T09:05:35Z</time>
      </trkpt>
      <trkpt lat="48.59643" lon="1.9868">
        <ele>28.98</ele>
        <time>2016-03-15T09:05:33Z</time>
      </trkpt>
      <trkpt lat="48.59646" lon="1.98682">
        <ele>28.98</ele>
        <time>2016-03-15T09:05:30Z</time>
      </trkpt>
      <trkpt lat="48.59648" lon="1.98684">
        <ele>28.98</ele>
        <time>2016-03-15T09:05:28Z</time>
      </trkpt>
      <trkpt lat="48.59651" lon="1.98688">
        <ele>28.98</ele>
        <time>2016-03-15T09:05:25Z</time>
      </trkpt>
      <trkpt lat="48.59662" lon="1.98692">
        <ele>28.02</ele>
        <time>2016-03-15T09:05:16Z</time>
      </trkpt>
      <trkpt lat="48.59674" lon="1.98694">
        <ele>28.02</ele>
        <time>2016-03-15T09:05:09Z</time>
      </trkpt>
      <trkpt lat="48.59687" lon="1.98686">
        <ele>28.98</ele>
        <time>2016-03-15T09:04:58Z</time>
      </trkpt>
      <trkpt lat="48.59691" lon="1.98684">
        <ele>28.98</ele>
        <time>2016-03-15T09:04:54Z</time>
      </trkpt>
      <trkpt lat="48.59688" lon="1.98672">
        <ele>29.94</ele>
        <time>2016-03-15T09:04:51Z</time>
      </trkpt>
      <trkpt lat="48.59698" lon="1.98651">
        <ele>32.82</ele>
        <time>2016-03-15T09:04:37Z</time>
      </trkpt>
      <trkpt lat="48.59699" lon="1.98644">
        <ele>33.78</ele>
        <time>2016-03-15T09:04:32Z</time>
      </trkpt>
      <trkpt lat="48.59699" lon="1.98641">
        <ele>35.23</ele>
        <time>2016-03-15T09:04:30Z</time>
      </trkpt>
      <trkpt lat="48.59701" lon="1.98625">
        <ele>38.11</ele>
        <time>2016-03-15T09:04:18Z</time>
      </trkpt>
      <trkpt lat="48.59704" lon="1.9862">
        <ele>39.07</ele>
        <time>2016-03-15T09:04:12Z</time>
      </trkpt>
      <trkpt lat="48.59705" lon="1.98609">
        <ele>41.95</ele>
        <time>2016-03-15T09:04:03Z</time>
      </trkpt>
      <trkpt lat="48.59704" lon="1.98605">
        <ele>42.92</ele>
        <time>2016-03-15T09:04:01Z</time>
      </trkpt>
      <trkpt lat="48.59706" lon="1.98598">
        <ele>45.8</ele>
        <time>2016-03-15T09:03:51Z</time>
      </trkpt>
      <trkpt lat="48.59701" lon="1.9859">
        <ele>48.2</ele>
        <time>2016-03-15T09:03:32Z</time>
      </trkpt>
      <trkpt lat="48.59708" lon="1.9858">
        <ele>48.2</ele>
        <time>2016-03-15T09:02:59Z</time>
      </trkpt>
      <trkpt lat="48.59709" lon="1.9858">
        <ele>48.2</ele>
        <time>2016-03-15T09:02:32Z</time>
      </trkpt>
      <trkpt lat="48.59718" lon="1.98572">
        <ele>49.16</ele>
        <time>2016-03-15T09:02:03Z</time>
      </trkpt>
      <trkpt lat="48.5973" lon="1.98564">
        <ele>49.16</ele>
        <time>2016-03-15T09:01:53Z</time>
      </trkpt>
      <trkpt lat="48.59738" lon="1.98558">
        <ele>49.16</ele>
        <time>2016-03-15T09:01:45Z</time>
      </trkpt>
      <trkpt lat="48.59748" lon="1.98551">
        <ele>49.16</ele>
        <time>2016-03-15T09:01:35Z</time>
      </trkpt>
      <trkpt lat="48.59767" lon="1.98543">
        <ele>49.16</ele>
        <time>2016-03-15T09:01:20Z</time>
      </trkpt>
      <trkpt lat="48.59769" lon="1.98542">
        <ele>49.16</ele>
        <time>2016-03-15T09:01:18Z</time>
      </trkpt>
      <trkpt lat="48.59781" lon="1.98533">
        <ele>48.2</ele>
        <time>2016-03-15T09:01:06Z</time>
      </trkpt>
      <trkpt lat="48.59785" lon="1.9853">
        <ele>46.76</ele>
        <time>2016-03-15T09:01:02Z</time>
      </trkpt>
      <trkpt lat="48.59794" lon="1.98524">
        <ele>45.8</ele>
        <time>2016-03-15T09:00:50Z</time>
      </trkpt>
      <trkpt lat="48.59806" lon="1.98522">
        <ele>41.95</ele>
        <time>2016-03-15T09:00:37Z</time>
      </trkpt>
      <trkpt lat="48.59812" lon="1.98521">
        <ele>40.99</ele>
        <time>2016-03-15T09:00:32Z</time>
      </trkpt>
      <trkpt lat="48.59816" lon="1.98521">
        <ele>40.03</ele>
        <time>2016-03-15T09:00:28Z</time>
      </trkpt>
      <trkpt lat="48.59825" lon="1.98521">
        <ele>37.15</ele>
        <time>2016-03-15T09:00:15Z</time>
      </trkpt>
      <trkpt lat="48.59828" lon="1.98521">
        <ele>37.15</ele>
        <time>2016-03-15T09:00:12Z</time>
      </trkpt>
      <trkpt lat="48.59829" lon="1.98522">
        <ele>37.15</ele>
        <time>2016-03-15T09:00:10Z</time>
      </trkpt>
      <trkpt lat="48.59834" lon="1.98519">
        <ele>36.19</ele>
        <time>2016-03-15T08:59:19Z</time>
      </trkpt>
      <trkpt lat="48.5984" lon="1.98513">
        <ele>33.78</ele>
        <time>2016-03-15T08:59:14Z</time>
      </trkpt>
      <trkpt lat="48.59844" lon="1.98504">
        <ele>32.82</ele>
        <time>2016-03-15T08:59:10Z</time>
      </trkpt>
      <trkpt lat="48.59846" lon="1.98502">
        <ele>32.82</ele>
        <time>2016-03-15T08:59:08Z</time>
      </trkpt>
      <trkpt lat="48.59857" lon="1.98484">
        <ele>30.9</ele>
        <time>2016-03-15T08:58:55Z</time>
      </trkpt>
      <trkpt lat="48.59858" lon="1.98474">
        <ele>29.94</ele>
        <time>2016-03-15T08:58:51Z</time>
      </trkpt>
      <trkpt lat="48.59859" lon="1.98459">
        <ele>29.94</ele>
        <time>2016-03-15T08:58:45Z</time>
      </trkpt>
      <trkpt lat="48.59857" lon="1.98449">
        <ele>29.94</ele>
        <time>2016-03-15T08:58:42Z</time>
      </trkpt>
      <trkpt lat="48.59852" lon="1.98433">
        <ele>29.94</ele>
        <time>2016-03-15T08:58:30Z</time>
      </trkpt>
      <trkpt lat="48.59847" lon="1.98412">
        <ele>27.05</ele>
        <time>2016-03-15T08:58:17Z</time>
      </trkpt>
      <trkpt lat="48.59856" lon="1.98397">
        <ele>28.02</ele>
        <time>2016-03-15T08:58:07Z</time>
      </trkpt>
      <trkpt lat="48.59867" lon="1.98381">
        <ele>28.02</ele>
        <time>2016-03-15T08:57:57Z</time>
      </trkpt>
      <trkpt lat="48.59872" lon="1.98368">
        <ele>28.02</ele>
        <time>2016-03-15T08:57:51Z</time>
      </trkpt>
      <trkpt lat="48.59873" lon="1.98364">
        <ele>28.02</ele>
        <time>2016-03-15T08:57:49Z</time>
      </trkpt>
      <trkpt lat="48.59879" lon="1.98352">
        <ele>28.98</ele>
        <time>2016-03-15T08:57:43Z</time>
      </trkpt>
      <trkpt lat="48.59886" lon="1.98333">
        <ele>28.02</ele>
        <time>2016-03-15T08:57:33Z</time>
      </trkpt>
      <trkpt lat="48.59889" lon="1.98316">
        <ele>28.02</ele>
        <time>2016-03-15T08:57:23Z</time>
      </trkpt>
      <trkpt lat="48.59892" lon="1.98306">
        <ele>28.02</ele>
        <time>2016-03-15T08:57:18Z</time>
      </trkpt>
      <trkpt lat="48.59888" lon="1.98281">
        <ele>28.98</ele>
        <time>2016-03-15T08:57:08Z</time>
      </trkpt>
      <trkpt lat="48.59884" lon="1.98274">
        <ele>29.94</ele>
        <time>2016-03-15T08:57:00Z</time>
      </trkpt>
      <trkpt lat="48.59866" lon="1.98261">
        <ele>30.9</ele>
        <time>2016-03-15T08:56:46Z</time>
      </trkpt>
      <trkpt lat="48.59844" lon="1.98254">
        <ele>33.78</ele>
        <time>2016-03-15T08:56:32Z</time>
      </trkpt>
      <trkpt lat="48.59842" lon="1.98252">
        <ele>33.78</ele>
        <time>2016-03-15T08:56:30Z</time>
      </trkpt>
      <trkpt lat="48.59839" lon="1.98251">
        <ele>33.78</ele>
        <time>2016-03-15T08:56:28Z</time>
      </trkpt>
      <trkpt lat="48.59837" lon="1.98248">
        <ele>35.23</ele>
        <time>2016-03-15T08:56:26Z</time>
      </trkpt>
      <trkpt lat="48.59827" lon="1.98245">
        <ele>37.15</ele>
        <time>2016-03-15T08:56:18Z</time>
      </trkpt>
      <trkpt lat="48.59804" lon="1.98236">
        <ele>40.99</ele>
        <time>2016-03-15T08:56:01Z</time>
      </trkpt>
      <trkpt lat="48.598" lon="1.98237">
        <ele>41.95</ele>
        <time>2016-03-15T08:55:57Z</time>
      </trkpt>
      <trkpt lat="48.59793" lon="1.98231">
        <ele>42.92</ele>
        <time>2016-03-15T08:55:50Z</time>
      </trkpt>
      <trkpt lat="48.59791" lon="1.98227">
        <ele>43.88</ele>
        <time>2016-03-15T08:55:47Z</time>
      </trkpt>
      <trkpt lat="48.59787" lon="1.98224">
        <ele>43.88</ele>
        <time>2016-03-15T08:55:43Z</time>
      </trkpt>
      <trkpt lat="48.59762" lon="1.98204">
        <ele>45.8</ele>
        <time>2016-03-15T08:55:27Z</time>
      </trkpt>
      <trkpt lat="48.5974" lon="1.98194">
        <ele>49.16</ele>
        <time>2016-03-15T08:55:12Z</time>
      </trkpt>
      <trkpt lat="48.59734" lon="1.98191">
        <ele>50.13</ele>
        <time>2016-03-15T08:55:08Z</time>
      </trkpt>
      <trkpt lat="48.59725" lon="1.98183">
        <ele>51.09</ele>
        <time>2016-03-15T08:55:00Z</time>
      </trkpt>
      <trkpt lat="48.59712" lon="1.98172">
        <ele>52.05</ele>
        <time>2016-03-15T08:54:50Z</time>
      </trkpt>
      <trkpt lat="48.59702" lon="1.98166">
        <ele>53.01</ele>
        <time>2016-03-15T08:54:42Z</time>
      </trkpt>
      <trkpt lat="48.59702" lon="1.98165">
        <ele>53.01</ele>
        <time>2016-03-15T08:54:41Z</time>
      </trkpt>
      <trkpt lat="48.59684" lon="1.98146">
        <ele>54.93</ele>
        <time>2016-03-15T08:54:25Z</time>
      </trkpt>
      <trkpt lat="48.59671" lon="1.98124">
        <ele>55.89</ele>
        <time>2016-03-15T08:54:13Z</time>
      </trkpt>
      <trkpt lat="48.59661" lon="1.98112">
        <ele>55.89</ele>
        <time>2016-03-15T08:54:03Z</time>
      </trkpt>
      <trkpt lat="48.59653" lon="1.98101">
        <ele>55.89</ele>
        <time>2016-03-15T08:53:59Z</time>
      </trkpt>
      <trkpt lat="48.59646" lon="1.98091">
        <ele>55.89</ele>
        <time>2016-03-15T08:53:54Z</time>
      </trkpt>
      <trkpt lat="48.59626" lon="1.9807">
        <ele>56.86</ele>
        <time>2016-03-15T08:53:41Z</time>
      </trkpt>
      <trkpt lat="48.59618" lon="1.9806">
        <ele>56.86</ele>
        <time>2016-03-15T08:53:33Z</time>
      </trkpt>
      <trkpt lat="48.59604" lon="1.98041">
        <ele>57.82</ele>
        <time>2016-03-15T08:53:22Z</time>
      </trkpt>
      <trkpt lat="48.59579" lon="1.98024">
        <ele>60.22</ele>
        <time>2016-03-15T08:53:07Z</time>
      </trkpt>
      <trkpt lat="48.59575" lon="1.98023">
        <ele>60.22</ele>
        <time>2016-03-15T08:53:04Z</time>
      </trkpt>
      <trkpt lat="48.59563" lon="1.98019">
        <ele>61.18</ele>
        <time>2016-03-15T08:52:54Z</time>
      </trkpt>
      <trkpt lat="48.59558" lon="1.98018">
        <ele>61.18</ele>
        <time>2016-03-15T08:52:50Z</time>
      </trkpt>
      <trkpt lat="48.59553" lon="1.98017">
        <ele>61.18</ele>
        <time>2016-03-15T08:52:47Z</time>
      </trkpt>
      <trkpt lat="48.59539" lon="1.98006">
        <ele>62.14</ele>
        <time>2016-03-15T08:52:35Z</time>
      </trkpt>
      <trkpt lat="48.59532" lon="1.98">
        <ele>62.14</ele>
        <time>2016-03-15T08:52:27Z</time>
      </trkpt>
      <trkpt lat="48.59528" lon="1.97998">
        <ele>62.14</ele>
        <time>2016-03-15T08:52:23Z</time>
      </trkpt>
      <trkpt lat="48.59526" lon="1.97995">
        <ele>62.14</ele>
        <time>2016-03-15T08:52:20Z</time>
      </trkpt>
      <trkpt lat="48.59524" lon="1.97992">
        <ele>62.14</ele>
        <time>2016-03-15T08:52:12Z</time>
      </trkpt>
      <trkpt lat="48.59522" lon="1.9799">
        <ele>62.14</ele>
        <time>2016-03-15T08:52:02Z</time>
      </trkpt>
      <trkpt lat="48.59523" lon="1.97993">
        <ele>62.14</ele>
        <time>2016-03-15T08:51:40Z</time>
      </trkpt>
      <trkpt lat="48.59524" lon="1.97994">
        <ele>62.14</ele>
        <time>2016-03-15T08:51:02Z</time>
      </trkpt>
      <trkpt lat="48.59524" lon="1.97998">
        <ele>62.14</ele>
        <time>2016-03-15T08:50:35Z</time>
      </trkpt>
      <trkpt lat="48.59518" lon="1.98001">
        <ele>62.14</ele>
        <time>2016-03-15T08:50:07Z</time>
      </trkpt>
      <trkpt lat="48.59514" lon="1.97996">
        <ele>61.18</ele>
        <time>2016-03-15T08:49:28Z</time>
      </trkpt>
      <trkpt lat="48.59518" lon="1.97983">
        <ele>61.18</ele>
        <time>2016-03-15T08:48:40Z</time>
      </trkpt>
      <trkpt lat="48.5952" lon="1.97975">
        <ele>62.14</ele>
        <time>2016-03-15T08:48:17Z</time>
      </trkpt>
      <trkpt lat="48.59514" lon="1.97958">
        <ele>62.14</ele>
        <time>2016-03-15T08:48:01Z</time>
      </trkpt>
      <trkpt lat="48.59508" lon="1.97931">
        <ele>63.1</ele>
        <time>2016-03-15T08:47:47Z</time>
      </trkpt>
      <trkpt lat="48.59498" lon="1.97894">
        <ele>63.1</ele>
        <time>2016-03-15T08:47:32Z</time>
      </trkpt>
      <trkpt lat="48.59494" lon="1.97883">
        <ele>63.1</ele>
        <time>2016-03-15T08:47:27Z</time>
      </trkpt>
      <trkpt lat="48.59485" lon="1.9786">
        <ele>63.1</ele>
        <time>2016-03-15T08:47:18Z</time>
      </trkpt>
      <trkpt lat="48.59467" lon="1.97814">
        <ele>63.1</ele>
        <time>2016-03-15T08:46:57Z</time>
      </trkpt>
      <trkpt lat="48.5946" lon="1.97793">
        <ele>63.1</ele>
        <time>2016-03-15T08:46:43Z</time>
      </trkpt>
      <trkpt lat="48.59453" lon="1.97771">
        <ele>62.14</ele>
        <time>2016-03-15T08:46:31Z</time>
      </trkpt>
      <trkpt lat="48.59453" lon="1.97767">
        <ele>62.14</ele>
        <time>2016-03-15T08:46:29Z</time>
      </trkpt>
      <trkpt lat="48.59449" lon="1.97747">
        <ele>61.18</ele>
        <time>2016-03-15T08:46:19Z</time>
      </trkpt>
      <trkpt lat="48.59447" lon="1.97737">
        <ele>60.22</ele>
        <time>2016-03-15T08:46:15Z</time>
      </trkpt>
      <trkpt lat="48.59445" lon="1.9773">
        <ele>58.78</ele>
        <time>2016-03-15T08:46:11Z</time>
      </trkpt>
      <trkpt lat="48.59442" lon="1.97713">
        <ele>57.82</ele>
        <time>2016-03-15T08:46:04Z</time>
      </trkpt>
      <trkpt lat="48.59439" lon="1.97707">
        <ele>57.82</ele>
        <time>2016-03-15T08:46:00Z</time>
      </trkpt>
      <trkpt lat="48.59438" lon="1.97699">
        <ele>57.82</ele>
        <time>2016-03-15T08:45:57Z</time>
      </trkpt>
      <trkpt lat="48.59437" lon="1.97694">
        <ele>56.86</ele>
        <time>2016-03-15T08:45:54Z</time>
      </trkpt>
      <trkpt lat="48.59433" lon="1.97676">
        <ele>55.89</ele>
        <time>2016-03-15T08:45:45Z</time>
      </trkpt>
      <trkpt lat="48.59434" lon="1.97651">
        <ele>53.01</ele>
        <time>2016-03-15T08:45:32Z</time>
      </trkpt>
      <trkpt lat="48.59435" lon="1.97648">
        <ele>53.01</ele>
        <time>2016-03-15T08:45:30Z</time>
      </trkpt>
      <trkpt lat="48.59444" lon="1.97622">
        <ele>51.09</ele>
        <time>2016-03-15T08:45:16Z</time>
      </trkpt>
      <trkpt lat="48.59449" lon="1.97593">
        <ele>49.16</ele>
        <time>2016-03-15T08:45:01Z</time>
      </trkpt>
      <trkpt lat="48.59457" lon="1.97562">
        <ele>46.76</ele>
        <time>2016-03-15T08:44:44Z</time>
      </trkpt>
      <trkpt lat="48.59467" lon="1.97541">
        <ele>45.8</ele>
        <time>2016-03-15T08:44:29Z</time>
      </trkpt>
      <trkpt lat="48.5947" lon="1.97536">
        <ele>45.8</ele>
        <time>2016-03-15T08:44:19Z</time>
      </trkpt>
      <trkpt lat="48.5947" lon="1.97531">
        <ele>45.8</ele>
        <time>2016-03-15T08:44:11Z</time>
      </trkpt>
      <trkpt lat="48.59475" lon="1.97533">
        <ele>44.84</ele>
        <time>2016-03-15T08:43:58Z</time>
      </trkpt>
      <trkpt lat="48.5948" lon="1.97503">
        <ele>43.88</ele>
        <time>2016-03-15T08:43:43Z</time>
      </trkpt>
      <trkpt lat="48.5948" lon="1.97464">
        <ele>41.95</ele>
        <time>2016-03-15T08:43:24Z</time>
      </trkpt>
      <trkpt lat="48.59475" lon="1.97438">
        <ele>41.95</ele>
        <time>2016-03-15T08:43:09Z</time>
      </trkpt>
      <trkpt lat="48.59475" lon="1.97435">
        <ele>40.99</ele>
        <time>2016-03-15T08:42:52Z</time>
      </trkpt>
      <trkpt lat="48.59468" lon="1.97427">
        <ele>40.99</ele>
        <time>2016-03-15T08:42:36Z</time>
      </trkpt>
      <trkpt lat="48.59466" lon="1.97424">
        <ele>40.99</ele>
        <time>2016-03-15T08:42:34Z</time>
      </trkpt>
      <trkpt lat="48.59462" lon="1.97421">
        <ele>40.99</ele>
        <time>2016-03-15T08:42:31Z</time>
      </trkpt>
      <trkpt lat="48.59447" lon="1.97414">
        <ele>40.03</ele>
        <time>2016-03-15T08:42:17Z</time>
      </trkpt>
      <trkpt lat="48.59422" lon="1.97411">
        <ele>37.15</ele>
        <time>2016-03-15T08:42:00Z</time>
      </trkpt>
      <trkpt lat="48.594" lon="1.97407">
        <ele>36.19</ele>
        <time>2016-03-15T08:41:45Z</time>
      </trkpt>
      <trkpt lat="48.5937" lon="1.97405">
        <ele>33.78</ele>
        <time>2016-03-15T08:41:23Z</time>
      </trkpt>
      <trkpt lat="48.59366" lon="1.97406">
        <ele>33.78</ele>
        <time>2016-03-15T08:41:20Z</time>
      </trkpt>
      <trkpt lat="48.59365" lon="1.97406">
        <ele>33.78</ele>
        <time>2016-03-15T08:41:19Z</time>
      </trkpt>
      <trkpt lat="48.59348" lon="1.97403">
        <ele>31.86</ele>
        <time>2016-03-15T08:41:05Z</time>
      </trkpt>
      <trkpt lat="48.59342" lon="1.97403">
        <ele>31.86</ele>
        <time>2016-03-15T08:41:00Z</time>
      </trkpt>
      <trkpt lat="48.59332" lon="1.97403">
        <ele>30.9</ele>
        <time>2016-03-15T08:40:54Z</time>
      </trkpt>
      <trkpt lat="48.59313" lon="1.97401">
        <ele>28.98</ele>
        <time>2016-03-15T08:40:40Z</time>
      </trkpt>
      <trkpt lat="48.59309" lon="1.974">
        <ele>28.98</ele>
        <time>2016-03-15T08:40:37Z</time>
      </trkpt>
      <trkpt lat="48.593" lon="1.97401">
        <ele>28.02</ele>
        <time>2016-03-15T08:40:30Z</time>
      </trkpt>
      <trkpt lat="48.59279" lon="1.97407">
        <ele>26.09</ele>
        <time>2016-03-15T08:40:15Z</time>
      </trkpt>
      <trkpt lat="48.59274" lon="1.97408">
        <ele>26.09</ele>
        <time>2016-03-15T08:40:11Z</time>
      </trkpt>
      <trkpt lat="48.59255" lon="1.97407">
        <ele>25.13</ele>
        <time>2016-03-15T08:39:59Z</time>
      </trkpt>
      <trkpt lat="48.59244" lon="1.97405">
        <ele>24.17</ele>
        <time>2016-03-15T08:39:54Z</time>
      </trkpt>
      <trkpt lat="48.59223" lon="1.97395">
        <ele>23.21</ele>
        <time>2016-03-15T08:39:41Z</time>
      </trkpt>
      <trkpt lat="48.59195" lon="1.97379">
        <ele>20.81</ele>
        <time>2016-03-15T08:39:22Z</time>
      </trkpt>
      <trkpt lat="48.59191" lon="1.97378">
        <ele>20.81</ele>
        <time>2016-03-15T08:39:18Z</time>
      </trkpt>
      <trkpt lat="48.5917" lon="1.97357">
        <ele>19.84</ele>
        <time>2016-03-15T08:39:01Z</time>
      </trkpt>
      <trkpt lat="48.59152" lon="1.97343">
        <ele>18.88</ele>
        <time>2016-03-15T08:38:45Z</time>
      </trkpt>
      <trkpt lat="48.59134" lon="1.97329">
        <ele>17.92</ele>
        <time>2016-03-15T08:38:27Z</time>
      </trkpt>
      <trkpt lat="48.59124" lon="1.97319">
        <ele>16.96</ele>
        <time>2016-03-15T08:38:15Z</time>
      </trkpt>
      <trkpt lat="48.59118" lon="1.97311">
        <ele>16.96</ele>
        <time>2016-03-15T08:38:00Z</time>
      </trkpt>
      <trkpt lat="48.59147" lon="1.97291">
        <ele>17.92</ele>
        <time>2016-03-15T08:37:38Z</time>
      </trkpt>
      <trkpt lat="48.59154" lon="1.97278">
        <ele>17.92</ele>
        <time>2016-03-15T08:37:32Z</time>
      </trkpt>
      <trkpt lat="48.59163" lon="1.97255">
        <ele>17.92</ele>
        <time>2016-03-15T08:37:17Z</time>
      </trkpt>
      <trkpt lat="48.59165" lon="1.97252">
        <ele>17.92</ele>
        <time>2016-03-15T08:37:15Z</time>
      </trkpt>
      <trkpt lat="48.59181" lon="1.9722">
        <ele>17.92</ele>
        <time>2016-03-15T08:36:59Z</time>
      </trkpt>
      <trkpt lat="48.59186" lon="1.97206">
        <ele>18.88</ele>
        <time>2016-03-15T08:36:51Z</time>
      </trkpt>
      <trkpt lat="48.59197" lon="1.97181">
        <ele>19.84</ele>
        <time>2016-03-15T08:36:37Z</time>
      </trkpt>
      <trkpt lat="48.59199" lon="1.97167">
        <ele>19.84</ele>
        <time>2016-03-15T08:36:31Z</time>
      </trkpt>
      <trkpt lat="48.592" lon="1.97165">
        <ele>20.81</ele>
        <time>2016-03-15T08:36:30Z</time>
      </trkpt>
      <trkpt lat="48.59212" lon="1.97146">
        <ele>21.77</ele>
        <time>2016-03-15T08:36:16Z</time>
      </trkpt>
      <trkpt lat="48.59222" lon="1.97123">
        <ele>23.21</ele>
        <time>2016-03-15T08:36:05Z</time>
      </trkpt>
      <trkpt lat="48.59235" lon="1.97108">
        <ele>23.21</ele>
        <time>2016-03-15T08:35:54Z</time>
      </trkpt>
      <trkpt lat="48.59241" lon="1.97085">
        <ele>23.21</ele>
        <time>2016-03-15T08:35:42Z</time>
      </trkpt>
      <trkpt lat="48.59248" lon="1.97064">
        <ele>24.17</ele>
        <time>2016-03-15T08:35:32Z</time>
      </trkpt>
      <trkpt lat="48.59257" lon="1.97053">
        <ele>24.17</ele>
        <time>2016-03-15T08:35:26Z</time>
      </trkpt>
      <trkpt lat="48.5926" lon="1.97048">
        <ele>24.17</ele>
        <time>2016-03-15T08:35:23Z</time>
      </trkpt>
      <trkpt lat="48.59269" lon="1.97024">
        <ele>25.13</ele>
        <time>2016-03-15T08:35:11Z</time>
      </trkpt>
      <trkpt lat="48.59283" lon="1.97">
        <ele>25.13</ele>
        <time>2016-03-15T08:34:58Z</time>
      </trkpt>
      <trkpt lat="48.59288" lon="1.9699">
        <ele>26.09</ele>
        <time>2016-03-15T08:34:53Z</time>
      </trkpt>
      <trkpt lat="48.59294" lon="1.96976">
        <ele>28.02</ele>
        <time>2016-03-15T08:34:45Z</time>
      </trkpt>
      <trkpt lat="48.59297" lon="1.9697">
        <ele>28.98</ele>
        <time>2016-03-15T08:34:41Z</time>
      </trkpt>
      <trkpt lat="48.59309" lon="1.9694">
        <ele>31.86</ele>
        <time>2016-03-15T08:34:26Z</time>
      </trkpt>
      <trkpt lat="48.59314" lon="1.96931">
        <ele>32.82</ele>
        <time>2016-03-15T08:34:20Z</time>
      </trkpt>
      <trkpt lat="48.59321" lon="1.96906">
        <ele>35.23</ele>
        <time>2016-03-15T08:34:05Z</time>
      </trkpt>
      <trkpt lat="48.59327" lon="1.96892">
        <ele>37.15</ele>
        <time>2016-03-15T08:33:58Z</time>
      </trkpt>
      <trkpt lat="48.59328" lon="1.96887">
        <ele>38.11</ele>
        <time>2016-03-15T08:33:56Z</time>
      </trkpt>
      <trkpt lat="48.59336" lon="1.9686">
        <ele>40.99</ele>
        <time>2016-03-15T08:33:42Z</time>
      </trkpt>
      <trkpt lat="48.59344" lon="1.96841">
        <ele>42.92</ele>
        <time>2016-03-15T08:33:26Z</time>
      </trkpt>
      <trkpt lat="48.59353" lon="1.96816">
        <ele>45.8</ele>
        <time>2016-03-15T08:33:10Z</time>
      </trkpt>
      <trkpt lat="48.59365" lon="1.96787">
        <ele>46.76</ele>
        <time>2016-03-15T08:32:52Z</time>
      </trkpt>
      <trkpt lat="48.5938" lon="1.96753">
        <ele>46.76</ele>
        <time>2016-03-15T08:32:33Z</time>
      </trkpt>
      <trkpt lat="48.59399" lon="1.96715">
        <ele>45.8</ele>
        <time>2016-03-15T08:32:12Z</time>
      </trkpt>
      <trkpt lat="48.59418" lon="1.96678">
        <ele>45.8</ele>
        <time>2016-03-15T08:31:52Z</time>
      </trkpt>
      <trkpt lat="48.59435" lon="1.96644">
        <ele>45.8</ele>
        <time>2016-03-15T08:31:33Z</time>
      </trkpt>
      <trkpt lat="48.59439" lon="1.96619">
        <ele>45.8</ele>
        <time>2016-03-15T08:31:20Z</time>
      </trkpt>
      <trkpt lat="48.5944" lon="1.96615">
        <ele>45.8</ele>
        <time>2016-03-15T08:31:09Z</time>
      </trkpt>
      <trkpt lat="48.5943" lon="1.96594">
        <ele>44.84</ele>
        <time>2016-03-15T08:30:51Z</time>
      </trkpt>
      <trkpt lat="48.59421" lon="1.96583">
        <ele>43.88</ele>
        <time>2016-03-15T08:30:43Z</time>
      </trkpt>
      <trkpt lat="48.59417" lon="1.96577">
        <ele>42.92</ele>
        <time>2016-03-15T08:30:38Z</time>
      </trkpt>
      <trkpt lat="48.59404" lon="1.96562">
        <ele>40.99</ele>
        <time>2016-03-15T08:30:26Z</time>
      </trkpt>
      <trkpt lat="48.59399" lon="1.96557">
        <ele>40.03</ele>
        <time>2016-03-15T08:30:21Z</time>
      </trkpt>
      <trkpt lat="48.59396" lon="1.96555">
        <ele>40.03</ele>
        <time>2016-03-15T08:30:18Z</time>
      </trkpt>
      <trkpt lat="48.59383" lon="1.9654">
        <ele>38.11</ele>
        <time>2016-03-15T08:30:07Z</time>
      </trkpt>
      <trkpt lat="48.59373" lon="1.96534">
        <ele>37.15</ele>
        <time>2016-03-15T08:29:57Z</time>
      </trkpt>
      <trkpt lat="48.59369" lon="1.9653">
        <ele>37.15</ele>
        <time>2016-03-15T08:29:53Z</time>
      </trkpt>
      <trkpt lat="48.59366" lon="1.96527">
        <ele>36.19</ele>
        <time>2016-03-15T08:29:50Z</time>
      </trkpt>
      <trkpt lat="48.59364" lon="1.96526">
        <ele>36.19</ele>
        <time>2016-03-15T08:29:48Z</time>
      </trkpt>
      <trkpt lat="48.59352" lon="1.96514">
        <ele>35.23</ele>
        <time>2016-03-15T08:29:36Z</time>
      </trkpt>
      <trkpt lat="48.59347" lon="1.9651">
        <ele>35.23</ele>
        <time>2016-03-15T08:29:33Z</time>
      </trkpt>
      <trkpt lat="48.59335" lon="1.96496">
        <ele>33.78</ele>
        <time>2016-03-15T08:29:23Z</time>
      </trkpt>
      <trkpt lat="48.59317" lon="1.96483">
        <ele>32.82</ele>
        <time>2016-03-15T08:29:07Z</time>
      </trkpt>
      <trkpt lat="48.59308" lon="1.96478">
        <ele>30.9</ele>
        <time>2016-03-15T08:28:56Z</time>
      </trkpt>
      <trkpt lat="48.59296" lon="1.96472">
        <ele>28.98</ele>
        <time>2016-03-15T08:28:44Z</time>
      </trkpt>
      <trkpt lat="48.59278" lon="1.96476">
        <ele>27.05</ele>
        <time>2016-03-15T08:28:28Z</time>
      </trkpt>
      <trkpt lat="48.59266" lon="1.96482">
        <ele>25.13</ele>
        <time>2016-03-15T08:28:20Z</time>
      </trkpt>
      <trkpt lat="48.59261" lon="1.96487">
        <ele>25.13</ele>
        <time>2016-03-15T08:28:16Z</time>
      </trkpt>
      <trkpt lat="48.59259" lon="1.96492">
        <ele>25.13</ele>
        <time>2016-03-15T08:28:13Z</time>
      </trkpt>
      <trkpt lat="48.59252" lon="1.96505">
        <ele>24.17</ele>
        <time>2016-03-15T08:28:04Z</time>
      </trkpt>
      <trkpt lat="48.59247" lon="1.96516">
        <ele>23.21</ele>
        <time>2016-03-15T08:27:55Z</time>
      </trkpt>
      <trkpt lat="48.59244" lon="1.96519">
        <ele>21.77</ele>
        <time>2016-03-15T08:27:51Z</time>
      </trkpt>
      <trkpt lat="48.5923" lon="1.96527">
        <ele>20.81</ele>
        <time>2016-03-15T08:27:40Z</time>
      </trkpt>
      <trkpt lat="48.59229" lon="1.96528">
        <ele>19.84</ele>
        <time>2016-03-15T08:27:38Z</time>
      </trkpt>
      <trkpt lat="48.59214" lon="1.96549">
        <ele>19.84</ele>
        <time>2016-03-15T08:27:24Z</time>
      </trkpt>
      <trkpt lat="48.59208" lon="1.96558">
        <ele>18.88</ele>
        <time>2016-03-15T08:27:20Z</time>
      </trkpt>
      <trkpt lat="48.59199" lon="1.9657">
        <ele>18.88</ele>
        <time>2016-03-15T08:27:13Z</time>
      </trkpt>
      <trkpt lat="48.59193" lon="1.96579">
        <ele>18.88</ele>
        <time>2016-03-15T08:27:05Z</time>
      </trkpt>
      <trkpt lat="48.59187" lon="1.9659">
        <ele>18.88</ele>
        <time>2016-03-15T08:26:54Z</time>
      </trkpt>
      <trkpt lat="48.59181" lon="1.96595">
        <ele>18.88</ele>
        <time>2016-03-15T08:26:47Z</time>
      </trkpt>
      <trkpt lat="48.5918" lon="1.96595">
        <ele>18.88</ele>
        <time>2016-03-15T08:26:46Z</time>
      </trkpt>
      <trkpt lat="48.59182" lon="1.966">
        <ele>18.88</ele>
        <time>2016-03-15T08:26:28Z</time>
      </trkpt>
      <trkpt lat="48.59181" lon="1.96604">
        <ele>17.92</ele>
        <time>2016-03-15T08:26:06Z</time>
      </trkpt>
      <trkpt lat="48.59197" lon="1.96604">
        <ele>16.96</ele>
        <time>2016-03-15T08:25:50Z</time>
      </trkpt>
      <trkpt lat="48.59121" lon="1.96588">
        <ele>16</ele>
        <time>2016-03-15T08:25:21Z</time>
      </trkpt>
      <trkpt lat="48.59123" lon="1.96588">
        <ele>12.15</ele>
        <time>2016-03-15T08:25:19Z</time>
      </trkpt>
      <trkpt lat="48.59124" lon="1.96587">
        <ele>5.91</ele>
        <time>2016-03-15T08:25:18Z</time>
      </trkpt>
      <trkpt lat="48.59124" lon="1.96587">
        <ele>-4.19</ele>
        <time>2016-03-15T08:25:17Z</time>
      </trkpt>
      <trkpt lat="48.59124" lon="1.96587">
        <ele>-24.86</ele>
        <time>2016-03-15T08:25:16Z</time>
      </trkpt>
      <trkpt lat="48.59124" lon="1.96587">
        <ele>-65.23</ele>
        <time>2016-03-15T08:25:15Z</time>
      </trkpt>
      <trkpt lat="48.59123" lon="1.96587">
        <ele>-144.06</ele>
        <time>2016-03-15T08:25:14Z</time>
      </trkpt>
      <trkpt lat="48.59124" lon="1.96587">
        <ele>-500.23</ele>
        <time>2016-03-15T08:25:12Z</time>
      </trkpt>
    </trkseg>
  </trk>
</gpx>